<?xml version="1.0" encoding="UTF-8" standalone="no" ?>
<gpx xmlns="http://www.topografix.com/GPX/1/1" xmlns:xsi="http://www.w3.org/2001/XMLSchema-instance" xsi:schemaLocation="http://www.topografix.com/GPX/1/1 http://www.topografix.com/GPX/1/1/gpx.xsd" version="1.1" creator="VisuGPX - https://www.visugpx.com">
  <metadata>
    <name>Petoumier-Pepoiri-Vacheries Anduibis</name>
    <desc><![CDATA[Sortie CAM du 15/12/
Peu de neige]]></desc>
  </metadata>
  <trk>
    <name><![CDATA[2013-12-15 08:36]]></name>
    <desc><![CDATA[<h1>OruxMaps</h1><br /><hr align="center" width="480" style="height: 2px; width: 517px"/><h2>Nom: 2013-12-15 08:36</h2><br /><p>Temps de départ: 12/15/2013 08:36</p><p>Temps d'arrivée: 12/15/2013 15:53</p><p>Distance: 15,6 km (07:14)</p><p>Temps déplacement: 04:57</p><p>Vitesse moyenne: 2,2 km/h</p><p>Vitesse moyenne: 3,1 km/h</p><p>Vitess Max.: 16,7 km/h</p><p>Altitude minimale: 1517 m</p><p>Altitude maximale: 2660 m</p><p>Vitesse d'élévation: 397,9 m/h</p><p>Vitesse de descente: -411,2 m/h</p><p>Gain Altitude: 1434 m</p><p>Perte Altitude: -1403 m</p><p>Temps d'élévation: 03:36</p><p>Temps de descente: 03:24</p><hr align="center" width="480" style="height: 2px; width: 517px"/>]]></desc>
    <trkseg>
      <trkpt lat="44.07324" lon="7.22681">
        <ele>1518.56</ele>
        <time>2013-12-15T07:36:25Z</time>
      </trkpt>
      <trkpt lat="44.07332" lon="7.22705">
        <ele>1518.23</ele>
        <time>2013-12-15T07:44:47Z</time>
      </trkpt>
      <trkpt lat="44.07334" lon="7.22731">
        <ele>1518.72</ele>
        <time>2013-12-15T07:45:08Z</time>
      </trkpt>
      <trkpt lat="44.07335" lon="7.22757">
        <ele>1520.46</ele>
        <time>2013-12-15T07:45:31Z</time>
      </trkpt>
      <trkpt lat="44.07337" lon="7.22782">
        <ele>1521.1</ele>
        <time>2013-12-15T07:45:50Z</time>
      </trkpt>
      <trkpt lat="44.07341" lon="7.22807">
        <ele>1522.75</ele>
        <time>2013-12-15T07:46:11Z</time>
      </trkpt>
      <trkpt lat="44.07347" lon="7.22832">
        <ele>1523.51</ele>
        <time>2013-12-15T07:46:33Z</time>
      </trkpt>
      <trkpt lat="44.07354" lon="7.22856">
        <ele>1523.84</ele>
        <time>2013-12-15T07:46:51Z</time>
      </trkpt>
      <trkpt lat="44.07361" lon="7.22881">
        <ele>1525.27</ele>
        <time>2013-12-15T07:47:03Z</time>
      </trkpt>
      <trkpt lat="44.07374" lon="7.22899">
        <ele>1527.08</ele>
        <time>2013-12-15T07:47:17Z</time>
      </trkpt>
      <trkpt lat="44.0739" lon="7.22911">
        <ele>1530.07</ele>
        <time>2013-12-15T07:47:44Z</time>
      </trkpt>
      <trkpt lat="44.07408" lon="7.22926">
        <ele>1537.43</ele>
        <time>2013-12-15T07:47:58Z</time>
      </trkpt>
      <trkpt lat="44.07426" lon="7.22933">
        <ele>1546.29</ele>
        <time>2013-12-15T07:48:25Z</time>
      </trkpt>
      <trkpt lat="44.07436" lon="7.22956">
        <ele>1548.44</ele>
        <time>2013-12-15T07:48:45Z</time>
      </trkpt>
      <trkpt lat="44.07432" lon="7.22981">
        <ele>1542.86</ele>
        <time>2013-12-15T07:49:00Z</time>
      </trkpt>
      <trkpt lat="44.07431" lon="7.23007">
        <ele>1538.92</ele>
        <time>2013-12-15T07:49:17Z</time>
      </trkpt>
      <trkpt lat="44.07431" lon="7.23033">
        <ele>1538</ele>
        <time>2013-12-15T07:49:36Z</time>
      </trkpt>
      <trkpt lat="44.07435" lon="7.23058">
        <ele>1542.08</ele>
        <time>2013-12-15T07:49:52Z</time>
      </trkpt>
      <trkpt lat="44.07444" lon="7.23081">
        <ele>1547.49</ele>
        <time>2013-12-15T07:50:10Z</time>
      </trkpt>
      <trkpt lat="44.07455" lon="7.23101">
        <ele>1550.66</ele>
        <time>2013-12-15T07:50:28Z</time>
      </trkpt>
      <trkpt lat="44.07455" lon="7.23076">
        <ele>1553.18</ele>
        <time>2013-12-15T07:51:07Z</time>
      </trkpt>
      <trkpt lat="44.07452" lon="7.23052">
        <ele>1551.2</ele>
        <time>2013-12-15T07:51:25Z</time>
      </trkpt>
      <trkpt lat="44.07456" lon="7.23027">
        <ele>1549.94</ele>
        <time>2013-12-15T07:51:39Z</time>
      </trkpt>
      <trkpt lat="44.07467" lon="7.23005">
        <ele>1554.24</ele>
        <time>2013-12-15T07:51:54Z</time>
      </trkpt>
      <trkpt lat="44.07468" lon="7.23032">
        <ele>1556.29</ele>
        <time>2013-12-15T07:52:37Z</time>
      </trkpt>
      <trkpt lat="44.07477" lon="7.23054">
        <ele>1564.22</ele>
        <time>2013-12-15T07:52:59Z</time>
      </trkpt>
      <trkpt lat="44.07489" lon="7.23074">
        <ele>1569.97</ele>
        <time>2013-12-15T07:53:29Z</time>
      </trkpt>
      <trkpt lat="44.07506" lon="7.23068">
        <ele>1579.1</ele>
        <time>2013-12-15T07:54:05Z</time>
      </trkpt>
      <trkpt lat="44.07508" lon="7.23043">
        <ele>1577.21</ele>
        <time>2013-12-15T07:54:33Z</time>
      </trkpt>
      <trkpt lat="44.07521" lon="7.23061">
        <ele>1586.16</ele>
        <time>2013-12-15T07:55:09Z</time>
      </trkpt>
      <trkpt lat="44.07535" lon="7.23078">
        <ele>1594.8</ele>
        <time>2013-12-15T07:55:51Z</time>
      </trkpt>
      <trkpt lat="44.07542" lon="7.23102">
        <ele>1595.95</ele>
        <time>2013-12-15T07:57:53Z</time>
      </trkpt>
      <trkpt lat="44.07551" lon="7.23124">
        <ele>1598.21</ele>
        <time>2013-12-15T07:58:07Z</time>
      </trkpt>
      <trkpt lat="44.07563" lon="7.23143">
        <ele>1602.71</ele>
        <time>2013-12-15T07:58:27Z</time>
      </trkpt>
      <trkpt lat="44.0757" lon="7.23167">
        <ele>1602.98</ele>
        <time>2013-12-15T07:58:57Z</time>
      </trkpt>
      <trkpt lat="44.07583" lon="7.23186">
        <ele>1608.65</ele>
        <time>2013-12-15T07:59:24Z</time>
      </trkpt>
      <trkpt lat="44.07588" lon="7.23211">
        <ele>1609.76</ele>
        <time>2013-12-15T07:59:47Z</time>
      </trkpt>
      <trkpt lat="44.07584" lon="7.23236">
        <ele>1605.33</ele>
        <time>2013-12-15T08:00:11Z</time>
      </trkpt>
      <trkpt lat="44.07591" lon="7.23259">
        <ele>1607.87</ele>
        <time>2013-12-15T08:00:37Z</time>
      </trkpt>
      <trkpt lat="44.07598" lon="7.23284">
        <ele>1610.17</ele>
        <time>2013-12-15T08:00:54Z</time>
      </trkpt>
      <trkpt lat="44.07614" lon="7.23297">
        <ele>1617.82</ele>
        <time>2013-12-15T08:01:16Z</time>
      </trkpt>
      <trkpt lat="44.0763" lon="7.2331">
        <ele>1624.8</ele>
        <time>2013-12-15T08:01:47Z</time>
      </trkpt>
      <trkpt lat="44.07648" lon="7.23322">
        <ele>1632.36</ele>
        <time>2013-12-15T08:02:17Z</time>
      </trkpt>
      <trkpt lat="44.07663" lon="7.23307">
        <ele>1641.74</ele>
        <time>2013-12-15T08:02:48Z</time>
      </trkpt>
      <trkpt lat="44.07674" lon="7.23286">
        <ele>1650.38</ele>
        <time>2013-12-15T08:03:17Z</time>
      </trkpt>
      <trkpt lat="44.07689" lon="7.23273">
        <ele>1659.85</ele>
        <time>2013-12-15T08:03:41Z</time>
      </trkpt>
      <trkpt lat="44.07707" lon="7.23263">
        <ele>1669.01</ele>
        <time>2013-12-15T08:03:56Z</time>
      </trkpt>
      <trkpt lat="44.07724" lon="7.23253">
        <ele>1678.96</ele>
        <time>2013-12-15T08:04:07Z</time>
      </trkpt>
      <trkpt lat="44.07742" lon="7.23248">
        <ele>1686.71</ele>
        <time>2013-12-15T08:04:26Z</time>
      </trkpt>
      <trkpt lat="44.07761" lon="7.23248">
        <ele>1689.26</ele>
        <time>2013-12-15T08:04:42Z</time>
      </trkpt>
      <trkpt lat="44.07779" lon="7.23249">
        <ele>1688.77</ele>
        <time>2013-12-15T08:05:00Z</time>
      </trkpt>
      <trkpt lat="44.07798" lon="7.23247">
        <ele>1689</ele>
        <time>2013-12-15T08:05:20Z</time>
      </trkpt>
      <trkpt lat="44.07817" lon="7.23252">
        <ele>1685.12</ele>
        <time>2013-12-15T08:05:34Z</time>
      </trkpt>
      <trkpt lat="44.07834" lon="7.23259">
        <ele>1680.22</ele>
        <time>2013-12-15T08:05:46Z</time>
      </trkpt>
      <trkpt lat="44.07851" lon="7.23271">
        <ele>1677.14</ele>
        <time>2013-12-15T08:06:09Z</time>
      </trkpt>
      <trkpt lat="44.07868" lon="7.2328">
        <ele>1677.79</ele>
        <time>2013-12-15T08:06:26Z</time>
      </trkpt>
      <trkpt lat="44.07886" lon="7.23289">
        <ele>1680.83</ele>
        <time>2013-12-15T08:06:42Z</time>
      </trkpt>
      <trkpt lat="44.07901" lon="7.23303">
        <ele>1683.59</ele>
        <time>2013-12-15T08:07:01Z</time>
      </trkpt>
      <trkpt lat="44.07918" lon="7.23312">
        <ele>1689.01</ele>
        <time>2013-12-15T08:07:16Z</time>
      </trkpt>
      <trkpt lat="44.0793" lon="7.23332">
        <ele>1685.6</ele>
        <time>2013-12-15T08:07:39Z</time>
      </trkpt>
      <trkpt lat="44.0793" lon="7.23358">
        <ele>1677.25</ele>
        <time>2013-12-15T08:07:56Z</time>
      </trkpt>
      <trkpt lat="44.07942" lon="7.23376">
        <ele>1674.29</ele>
        <time>2013-12-15T08:08:19Z</time>
      </trkpt>
      <trkpt lat="44.07957" lon="7.23392">
        <ele>1673.87</ele>
        <time>2013-12-15T08:08:37Z</time>
      </trkpt>
      <trkpt lat="44.07963" lon="7.23416">
        <ele>1669.75</ele>
        <time>2013-12-15T08:08:55Z</time>
      </trkpt>
      <trkpt lat="44.0797" lon="7.2344">
        <ele>1665.07</ele>
        <time>2013-12-15T08:09:13Z</time>
      </trkpt>
      <trkpt lat="44.07979" lon="7.23462">
        <ele>1666.52</ele>
        <time>2013-12-15T08:09:29Z</time>
      </trkpt>
      <trkpt lat="44.07991" lon="7.23483">
        <ele>1670.37</ele>
        <time>2013-12-15T08:09:48Z</time>
      </trkpt>
      <trkpt lat="44.08003" lon="7.23502">
        <ele>1676.16</ele>
        <time>2013-12-15T08:10:03Z</time>
      </trkpt>
      <trkpt lat="44.08019" lon="7.23517">
        <ele>1685.51</ele>
        <time>2013-12-15T08:10:19Z</time>
      </trkpt>
      <trkpt lat="44.08035" lon="7.23529">
        <ele>1693.09</ele>
        <time>2013-12-15T08:10:42Z</time>
      </trkpt>
      <trkpt lat="44.08052" lon="7.23538">
        <ele>1699.83</ele>
        <time>2013-12-15T08:11:03Z</time>
      </trkpt>
      <trkpt lat="44.08067" lon="7.23551">
        <ele>1703.8</ele>
        <time>2013-12-15T08:11:29Z</time>
      </trkpt>
      <trkpt lat="44.08086" lon="7.23554">
        <ele>1713.09</ele>
        <time>2013-12-15T08:12:41Z</time>
      </trkpt>
      <trkpt lat="44.08104" lon="7.23551">
        <ele>1717.96</ele>
        <time>2013-12-15T08:13:08Z</time>
      </trkpt>
      <trkpt lat="44.08109" lon="7.23527">
        <ele>1726.95</ele>
        <time>2013-12-15T08:13:41Z</time>
      </trkpt>
      <trkpt lat="44.08122" lon="7.23508">
        <ele>1735.33</ele>
        <time>2013-12-15T08:14:13Z</time>
      </trkpt>
      <trkpt lat="44.08134" lon="7.23489">
        <ele>1744.89</ele>
        <time>2013-12-15T08:14:43Z</time>
      </trkpt>
      <trkpt lat="44.08147" lon="7.23471">
        <ele>1752.34</ele>
        <time>2013-12-15T08:15:31Z</time>
      </trkpt>
      <trkpt lat="44.08161" lon="7.23454">
        <ele>1758.26</ele>
        <time>2013-12-15T08:16:02Z</time>
      </trkpt>
      <trkpt lat="44.08173" lon="7.23434">
        <ele>1763.24</ele>
        <time>2013-12-15T08:16:36Z</time>
      </trkpt>
      <trkpt lat="44.08184" lon="7.23414">
        <ele>1767.09</ele>
        <time>2013-12-15T08:17:18Z</time>
      </trkpt>
      <trkpt lat="44.08198" lon="7.23397">
        <ele>1770.48</ele>
        <time>2013-12-15T08:17:51Z</time>
      </trkpt>
      <trkpt lat="44.08179" lon="7.23394">
        <ele>1774.64</ele>
        <time>2013-12-15T08:18:54Z</time>
      </trkpt>
      <trkpt lat="44.0819" lon="7.23374">
        <ele>1780.34</ele>
        <time>2013-12-15T08:19:31Z</time>
      </trkpt>
      <trkpt lat="44.08203" lon="7.23356">
        <ele>1785.79</ele>
        <time>2013-12-15T08:19:55Z</time>
      </trkpt>
      <trkpt lat="44.08184" lon="7.23358">
        <ele>1787.01</ele>
        <time>2013-12-15T08:20:26Z</time>
      </trkpt>
      <trkpt lat="44.08166" lon="7.23363">
        <ele>1787.32</ele>
        <time>2013-12-15T08:20:53Z</time>
      </trkpt>
      <trkpt lat="44.08147" lon="7.23361">
        <ele>1788.11</ele>
        <time>2013-12-15T08:21:17Z</time>
      </trkpt>
      <trkpt lat="44.0813" lon="7.23357">
        <ele>1784.65</ele>
        <time>2013-12-15T08:21:40Z</time>
      </trkpt>
      <trkpt lat="44.08143" lon="7.2334">
        <ele>1794.1</ele>
        <time>2013-12-15T08:22:20Z</time>
      </trkpt>
      <trkpt lat="44.08156" lon="7.23322">
        <ele>1799.92</ele>
        <time>2013-12-15T08:22:46Z</time>
      </trkpt>
      <trkpt lat="44.08171" lon="7.23308">
        <ele>1805.88</ele>
        <time>2013-12-15T08:23:10Z</time>
      </trkpt>
      <trkpt lat="44.08179" lon="7.23285">
        <ele>1817.46</ele>
        <time>2013-12-15T08:23:51Z</time>
      </trkpt>
      <trkpt lat="44.08161" lon="7.23278">
        <ele>1818.91</ele>
        <time>2013-12-15T08:25:12Z</time>
      </trkpt>
      <trkpt lat="44.08143" lon="7.23273">
        <ele>1813.95</ele>
        <time>2013-12-15T08:25:49Z</time>
      </trkpt>
      <trkpt lat="44.08145" lon="7.23248">
        <ele>1821.56</ele>
        <time>2013-12-15T08:26:48Z</time>
      </trkpt>
      <trkpt lat="44.08147" lon="7.23221">
        <ele>1823.18</ele>
        <time>2013-12-15T08:27:02Z</time>
      </trkpt>
      <trkpt lat="44.08153" lon="7.23196">
        <ele>1828.92</ele>
        <time>2013-12-15T08:27:39Z</time>
      </trkpt>
      <trkpt lat="44.08165" lon="7.23177">
        <ele>1837.73</ele>
        <time>2013-12-15T08:28:06Z</time>
      </trkpt>
      <trkpt lat="44.08167" lon="7.23152">
        <ele>1843.92</ele>
        <time>2013-12-15T08:28:52Z</time>
      </trkpt>
      <trkpt lat="44.08165" lon="7.23126">
        <ele>1849.86</ele>
        <time>2013-12-15T08:29:23Z</time>
      </trkpt>
      <trkpt lat="44.08183" lon="7.23119">
        <ele>1858.5</ele>
        <time>2013-12-15T08:29:52Z</time>
      </trkpt>
      <trkpt lat="44.08201" lon="7.2311">
        <ele>1866.87</ele>
        <time>2013-12-15T08:31:08Z</time>
      </trkpt>
      <trkpt lat="44.08219" lon="7.23115">
        <ele>1870.18</ele>
        <time>2013-12-15T08:31:31Z</time>
      </trkpt>
      <trkpt lat="44.08238" lon="7.23112">
        <ele>1874.58</ele>
        <time>2013-12-15T08:32:25Z</time>
      </trkpt>
      <trkpt lat="44.08264" lon="7.23107">
        <ele>1879.71</ele>
        <time>2013-12-15T08:32:56Z</time>
      </trkpt>
      <trkpt lat="44.08282" lon="7.23106">
        <ele>1881.97</ele>
        <time>2013-12-15T08:33:22Z</time>
      </trkpt>
      <trkpt lat="44.083" lon="7.23101">
        <ele>1884.69</ele>
        <time>2013-12-15T08:33:46Z</time>
      </trkpt>
      <trkpt lat="44.08319" lon="7.23098">
        <ele>1886.11</ele>
        <time>2013-12-15T08:34:06Z</time>
      </trkpt>
      <trkpt lat="44.08338" lon="7.23098">
        <ele>1886.49</ele>
        <time>2013-12-15T08:34:28Z</time>
      </trkpt>
      <trkpt lat="44.08356" lon="7.23099">
        <ele>1886.31</ele>
        <time>2013-12-15T08:34:49Z</time>
      </trkpt>
      <trkpt lat="44.08374" lon="7.23098">
        <ele>1889.2</ele>
        <time>2013-12-15T08:35:12Z</time>
      </trkpt>
      <trkpt lat="44.08392" lon="7.23098">
        <ele>1892.57</ele>
        <time>2013-12-15T08:35:35Z</time>
      </trkpt>
      <trkpt lat="44.0841" lon="7.23094">
        <ele>1897.44</ele>
        <time>2013-12-15T08:36:04Z</time>
      </trkpt>
      <trkpt lat="44.08425" lon="7.23081">
        <ele>1902.61</ele>
        <time>2013-12-15T08:36:34Z</time>
      </trkpt>
      <trkpt lat="44.08422" lon="7.23057">
        <ele>1909.8</ele>
        <time>2013-12-15T08:37:34Z</time>
      </trkpt>
      <trkpt lat="44.08407" lon="7.23042">
        <ele>1913.61</ele>
        <time>2013-12-15T08:38:11Z</time>
      </trkpt>
      <trkpt lat="44.0839" lon="7.23033">
        <ele>1915.65</ele>
        <time>2013-12-15T08:38:34Z</time>
      </trkpt>
      <trkpt lat="44.08372" lon="7.23025">
        <ele>1917.73</ele>
        <time>2013-12-15T08:38:54Z</time>
      </trkpt>
      <trkpt lat="44.08355" lon="7.23016">
        <ele>1920.43</ele>
        <time>2013-12-15T08:39:16Z</time>
      </trkpt>
      <trkpt lat="44.08338" lon="7.23005">
        <ele>1924.71</ele>
        <time>2013-12-15T08:39:42Z</time>
      </trkpt>
      <trkpt lat="44.08322" lon="7.22993">
        <ele>1929.07</ele>
        <time>2013-12-15T08:40:06Z</time>
      </trkpt>
      <trkpt lat="44.08306" lon="7.22982">
        <ele>1933.61</ele>
        <time>2013-12-15T08:40:30Z</time>
      </trkpt>
      <trkpt lat="44.08288" lon="7.22976">
        <ele>1932.53</ele>
        <time>2013-12-15T08:40:55Z</time>
      </trkpt>
      <trkpt lat="44.08272" lon="7.22964">
        <ele>1934.78</ele>
        <time>2013-12-15T08:41:19Z</time>
      </trkpt>
      <trkpt lat="44.08256" lon="7.22951">
        <ele>1939.32</ele>
        <time>2013-12-15T08:41:38Z</time>
      </trkpt>
      <trkpt lat="44.08239" lon="7.2294">
        <ele>1942.06</ele>
        <time>2013-12-15T08:42:00Z</time>
      </trkpt>
      <trkpt lat="44.08224" lon="7.22926">
        <ele>1944.81</ele>
        <time>2013-12-15T08:42:34Z</time>
      </trkpt>
      <trkpt lat="44.08211" lon="7.22908">
        <ele>1947.78</ele>
        <time>2013-12-15T08:42:58Z</time>
      </trkpt>
      <trkpt lat="44.08196" lon="7.22893">
        <ele>1946.11</ele>
        <time>2013-12-15T08:43:19Z</time>
      </trkpt>
      <trkpt lat="44.0818" lon="7.22881">
        <ele>1943.37</ele>
        <time>2013-12-15T08:43:37Z</time>
      </trkpt>
      <trkpt lat="44.08172" lon="7.22859">
        <ele>1943.64</ele>
        <time>2013-12-15T08:44:00Z</time>
      </trkpt>
      <trkpt lat="44.08164" lon="7.22836">
        <ele>1944.53</ele>
        <time>2013-12-15T08:44:23Z</time>
      </trkpt>
      <trkpt lat="44.08157" lon="7.22813">
        <ele>1944.55</ele>
        <time>2013-12-15T08:44:44Z</time>
      </trkpt>
      <trkpt lat="44.08147" lon="7.22835">
        <ele>1937.5</ele>
        <time>2013-12-15T08:45:21Z</time>
      </trkpt>
      <trkpt lat="44.08151" lon="7.22809">
        <ele>1942.5</ele>
        <time>2013-12-15T08:46:08Z</time>
      </trkpt>
      <trkpt lat="44.08153" lon="7.22784">
        <ele>1947.35</ele>
        <time>2013-12-15T08:46:26Z</time>
      </trkpt>
      <trkpt lat="44.08158" lon="7.22759">
        <ele>1953.37</ele>
        <time>2013-12-15T08:46:46Z</time>
      </trkpt>
      <trkpt lat="44.08162" lon="7.22735">
        <ele>1959.01</ele>
        <time>2013-12-15T08:47:10Z</time>
      </trkpt>
      <trkpt lat="44.08167" lon="7.2271">
        <ele>1965.73</ele>
        <time>2013-12-15T08:47:38Z</time>
      </trkpt>
      <trkpt lat="44.0817" lon="7.22685">
        <ele>1974.14</ele>
        <time>2013-12-15T08:48:05Z</time>
      </trkpt>
      <trkpt lat="44.08167" lon="7.22659">
        <ele>1981.29</ele>
        <time>2013-12-15T08:48:24Z</time>
      </trkpt>
      <trkpt lat="44.08182" lon="7.22644">
        <ele>1987.04</ele>
        <time>2013-12-15T08:49:20Z</time>
      </trkpt>
      <trkpt lat="44.08196" lon="7.2266">
        <ele>1985.94</ele>
        <time>2013-12-15T08:49:43Z</time>
      </trkpt>
      <trkpt lat="44.08209" lon="7.22642">
        <ele>1992.28</ele>
        <time>2013-12-15T08:50:16Z</time>
      </trkpt>
      <trkpt lat="44.08227" lon="7.22651">
        <ele>1992.99</ele>
        <time>2013-12-15T08:51:01Z</time>
      </trkpt>
      <trkpt lat="44.08243" lon="7.22662">
        <ele>1995.13</ele>
        <time>2013-12-15T08:51:41Z</time>
      </trkpt>
      <trkpt lat="44.0826" lon="7.2267">
        <ele>2001.41</ele>
        <time>2013-12-15T08:52:20Z</time>
      </trkpt>
      <trkpt lat="44.08277" lon="7.22681">
        <ele>2008.13</ele>
        <time>2013-12-15T08:52:54Z</time>
      </trkpt>
      <trkpt lat="44.08295" lon="7.22687">
        <ele>2010.29</ele>
        <time>2013-12-15T08:53:23Z</time>
      </trkpt>
      <trkpt lat="44.08313" lon="7.2269">
        <ele>2013.99</ele>
        <time>2013-12-15T08:53:50Z</time>
      </trkpt>
      <trkpt lat="44.08331" lon="7.22695">
        <ele>2019.24</ele>
        <time>2013-12-15T08:54:13Z</time>
      </trkpt>
      <trkpt lat="44.08348" lon="7.22686">
        <ele>2024.06</ele>
        <time>2013-12-15T08:54:39Z</time>
      </trkpt>
      <trkpt lat="44.08364" lon="7.22672">
        <ele>2028.54</ele>
        <time>2013-12-15T08:55:07Z</time>
      </trkpt>
      <trkpt lat="44.0838" lon="7.22658">
        <ele>2032.35</ele>
        <time>2013-12-15T08:55:31Z</time>
      </trkpt>
      <trkpt lat="44.08391" lon="7.22637">
        <ele>2036.53</ele>
        <time>2013-12-15T08:55:56Z</time>
      </trkpt>
      <trkpt lat="44.08394" lon="7.22612">
        <ele>2040.58</ele>
        <time>2013-12-15T08:56:23Z</time>
      </trkpt>
      <trkpt lat="44.08391" lon="7.22588">
        <ele>2044.48</ele>
        <time>2013-12-15T08:56:49Z</time>
      </trkpt>
      <trkpt lat="44.08385" lon="7.22564">
        <ele>2048.64</ele>
        <time>2013-12-15T08:57:12Z</time>
      </trkpt>
      <trkpt lat="44.08376" lon="7.22541">
        <ele>2052.19</ele>
        <time>2013-12-15T08:57:35Z</time>
      </trkpt>
      <trkpt lat="44.08375" lon="7.22516">
        <ele>2056.53</ele>
        <time>2013-12-15T08:58:04Z</time>
      </trkpt>
      <trkpt lat="44.08381" lon="7.22493">
        <ele>2061.38</ele>
        <time>2013-12-15T08:58:32Z</time>
      </trkpt>
      <trkpt lat="44.08388" lon="7.22469">
        <ele>2066.71</ele>
        <time>2013-12-15T08:59:04Z</time>
      </trkpt>
      <trkpt lat="44.08396" lon="7.22447">
        <ele>2072.12</ele>
        <time>2013-12-15T08:59:28Z</time>
      </trkpt>
      <trkpt lat="44.08403" lon="7.22423">
        <ele>2076.69</ele>
        <time>2013-12-15T08:59:56Z</time>
      </trkpt>
      <trkpt lat="44.08412" lon="7.22402">
        <ele>2081.3</ele>
        <time>2013-12-15T09:00:20Z</time>
      </trkpt>
      <trkpt lat="44.0842" lon="7.22379">
        <ele>2086.29</ele>
        <time>2013-12-15T09:00:53Z</time>
      </trkpt>
      <trkpt lat="44.08428" lon="7.22356">
        <ele>2091.25</ele>
        <time>2013-12-15T09:01:16Z</time>
      </trkpt>
      <trkpt lat="44.08438" lon="7.22335">
        <ele>2095.9</ele>
        <time>2013-12-15T09:01:42Z</time>
      </trkpt>
      <trkpt lat="44.08447" lon="7.22313">
        <ele>2099.69</ele>
        <time>2013-12-15T09:02:16Z</time>
      </trkpt>
      <trkpt lat="44.08457" lon="7.22292">
        <ele>2104.55</ele>
        <time>2013-12-15T09:02:42Z</time>
      </trkpt>
      <trkpt lat="44.08463" lon="7.22268">
        <ele>2110.72</ele>
        <time>2013-12-15T09:03:08Z</time>
      </trkpt>
      <trkpt lat="44.08472" lon="7.22244">
        <ele>2116.51</ele>
        <time>2013-12-15T09:03:29Z</time>
      </trkpt>
      <trkpt lat="44.0848" lon="7.22222">
        <ele>2122.7</ele>
        <time>2013-12-15T09:04:09Z</time>
      </trkpt>
      <trkpt lat="44.0849" lon="7.22201">
        <ele>2127.07</ele>
        <time>2013-12-15T09:04:55Z</time>
      </trkpt>
      <trkpt lat="44.08496" lon="7.22177">
        <ele>2134.51</ele>
        <time>2013-12-15T09:05:27Z</time>
      </trkpt>
      <trkpt lat="44.08508" lon="7.22158">
        <ele>2136.88</ele>
        <time>2013-12-15T09:06:06Z</time>
      </trkpt>
      <trkpt lat="44.0851" lon="7.22133">
        <ele>2143.37</ele>
        <time>2013-12-15T09:07:12Z</time>
      </trkpt>
      <trkpt lat="44.08524" lon="7.22116">
        <ele>2143.89</ele>
        <time>2013-12-15T09:07:45Z</time>
      </trkpt>
      <trkpt lat="44.08528" lon="7.22091">
        <ele>2149.73</ele>
        <time>2013-12-15T09:08:42Z</time>
      </trkpt>
      <trkpt lat="44.08526" lon="7.22066">
        <ele>2157.8</ele>
        <time>2013-12-15T09:10:16Z</time>
      </trkpt>
      <trkpt lat="44.08529" lon="7.22041">
        <ele>2164.42</ele>
        <time>2013-12-15T09:11:14Z</time>
      </trkpt>
      <trkpt lat="44.08534" lon="7.22017">
        <ele>2171.04</ele>
        <time>2013-12-15T09:12:01Z</time>
      </trkpt>
      <trkpt lat="44.08545" lon="7.21997">
        <ele>2174.07</ele>
        <time>2013-12-15T09:12:44Z</time>
      </trkpt>
      <trkpt lat="44.08558" lon="7.21979">
        <ele>2175.51</ele>
        <time>2013-12-15T09:13:30Z</time>
      </trkpt>
      <trkpt lat="44.08561" lon="7.21953">
        <ele>2179.13</ele>
        <time>2013-12-15T09:14:08Z</time>
      </trkpt>
      <trkpt lat="44.0856" lon="7.21928">
        <ele>2177.81</ele>
        <time>2013-12-15T09:14:32Z</time>
      </trkpt>
      <trkpt lat="44.08553" lon="7.21904">
        <ele>2173.31</ele>
        <time>2013-12-15T09:15:30Z</time>
      </trkpt>
      <trkpt lat="44.08566" lon="7.21895">
        <ele>2170.08</ele>
        <time>2013-12-15T09:18:24Z</time>
      </trkpt>
      <trkpt lat="44.08581" lon="7.21911">
        <ele>2176.1</ele>
        <time>2013-12-15T09:21:32Z</time>
      </trkpt>
      <trkpt lat="44.08599" lon="7.21915">
        <ele>2178.67</ele>
        <time>2013-12-15T09:21:57Z</time>
      </trkpt>
      <trkpt lat="44.08617" lon="7.21916">
        <ele>2180.76</ele>
        <time>2013-12-15T09:22:20Z</time>
      </trkpt>
      <trkpt lat="44.08635" lon="7.21919">
        <ele>2184.23</ele>
        <time>2013-12-15T09:23:04Z</time>
      </trkpt>
      <trkpt lat="44.08652" lon="7.21925">
        <ele>2187.91</ele>
        <time>2013-12-15T09:23:40Z</time>
      </trkpt>
      <trkpt lat="44.0867" lon="7.21932">
        <ele>2192.35</ele>
        <time>2013-12-15T09:24:21Z</time>
      </trkpt>
      <trkpt lat="44.08688" lon="7.21931">
        <ele>2196.55</ele>
        <time>2013-12-15T09:25:02Z</time>
      </trkpt>
      <trkpt lat="44.08706" lon="7.21935">
        <ele>2200.23</ele>
        <time>2013-12-15T09:25:38Z</time>
      </trkpt>
      <trkpt lat="44.08724" lon="7.21929">
        <ele>2203.1</ele>
        <time>2013-12-15T09:26:06Z</time>
      </trkpt>
      <trkpt lat="44.08742" lon="7.21925">
        <ele>2205</ele>
        <time>2013-12-15T09:26:31Z</time>
      </trkpt>
      <trkpt lat="44.0876" lon="7.21924">
        <ele>2207.31</ele>
        <time>2013-12-15T09:28:20Z</time>
      </trkpt>
      <trkpt lat="44.08778" lon="7.21923">
        <ele>2209.8</ele>
        <time>2013-12-15T09:28:45Z</time>
      </trkpt>
      <trkpt lat="44.08796" lon="7.21927">
        <ele>2214.87</ele>
        <time>2013-12-15T09:29:27Z</time>
      </trkpt>
      <trkpt lat="44.08815" lon="7.21932">
        <ele>2219.68</ele>
        <time>2013-12-15T09:29:46Z</time>
      </trkpt>
      <trkpt lat="44.08832" lon="7.21927">
        <ele>2224.04</ele>
        <time>2013-12-15T09:30:09Z</time>
      </trkpt>
      <trkpt lat="44.0885" lon="7.21926">
        <ele>2228.26</ele>
        <time>2013-12-15T09:30:36Z</time>
      </trkpt>
      <trkpt lat="44.08868" lon="7.21918">
        <ele>2233.46</ele>
        <time>2013-12-15T09:31:05Z</time>
      </trkpt>
      <trkpt lat="44.08885" lon="7.21908">
        <ele>2238.86</ele>
        <time>2013-12-15T09:31:43Z</time>
      </trkpt>
      <trkpt lat="44.08902" lon="7.21899">
        <ele>2242.58</ele>
        <time>2013-12-15T09:32:10Z</time>
      </trkpt>
      <trkpt lat="44.08917" lon="7.21886">
        <ele>2246.49</ele>
        <time>2013-12-15T09:32:48Z</time>
      </trkpt>
      <trkpt lat="44.08934" lon="7.21875">
        <ele>2250.81</ele>
        <time>2013-12-15T09:33:19Z</time>
      </trkpt>
      <trkpt lat="44.08943" lon="7.21852">
        <ele>2255.56</ele>
        <time>2013-12-15T09:34:04Z</time>
      </trkpt>
      <trkpt lat="44.08961" lon="7.21851">
        <ele>2258.66</ele>
        <time>2013-12-15T09:34:52Z</time>
      </trkpt>
      <trkpt lat="44.08978" lon="7.21859">
        <ele>2261.13</ele>
        <time>2013-12-15T09:35:39Z</time>
      </trkpt>
      <trkpt lat="44.08993" lon="7.21845">
        <ele>2268.12</ele>
        <time>2013-12-15T09:36:35Z</time>
      </trkpt>
      <trkpt lat="44.09005" lon="7.21826">
        <ele>2274.8</ele>
        <time>2013-12-15T09:37:26Z</time>
      </trkpt>
      <trkpt lat="44.09022" lon="7.21834">
        <ele>2280.75</ele>
        <time>2013-12-15T09:38:14Z</time>
      </trkpt>
      <trkpt lat="44.0904" lon="7.21831">
        <ele>2286.37</ele>
        <time>2013-12-15T09:38:48Z</time>
      </trkpt>
      <trkpt lat="44.09057" lon="7.21821">
        <ele>2290.02</ele>
        <time>2013-12-15T09:39:30Z</time>
      </trkpt>
      <trkpt lat="44.09073" lon="7.21808">
        <ele>2291.95</ele>
        <time>2013-12-15T09:40:10Z</time>
      </trkpt>
      <trkpt lat="44.09089" lon="7.21797">
        <ele>2294.87</ele>
        <time>2013-12-15T09:40:50Z</time>
      </trkpt>
      <trkpt lat="44.09107" lon="7.21798">
        <ele>2301.33</ele>
        <time>2013-12-15T09:41:26Z</time>
      </trkpt>
      <trkpt lat="44.09124" lon="7.21791">
        <ele>2305.83</ele>
        <time>2013-12-15T09:42:01Z</time>
      </trkpt>
      <trkpt lat="44.09139" lon="7.21775">
        <ele>2308.84</ele>
        <time>2013-12-15T09:42:32Z</time>
      </trkpt>
      <trkpt lat="44.09156" lon="7.21764">
        <ele>2312.8</ele>
        <time>2013-12-15T09:42:56Z</time>
      </trkpt>
      <trkpt lat="44.09172" lon="7.21751">
        <ele>2316.21</ele>
        <time>2013-12-15T09:43:16Z</time>
      </trkpt>
      <trkpt lat="44.09188" lon="7.21738">
        <ele>2319.02</ele>
        <time>2013-12-15T09:43:42Z</time>
      </trkpt>
      <trkpt lat="44.09205" lon="7.21733">
        <ele>2323.99</ele>
        <time>2013-12-15T09:44:09Z</time>
      </trkpt>
      <trkpt lat="44.09222" lon="7.21723">
        <ele>2329.96</ele>
        <time>2013-12-15T09:44:39Z</time>
      </trkpt>
      <trkpt lat="44.0924" lon="7.21716">
        <ele>2335.81</ele>
        <time>2013-12-15T09:45:02Z</time>
      </trkpt>
      <trkpt lat="44.09253" lon="7.21698">
        <ele>2338.87</ele>
        <time>2013-12-15T09:45:38Z</time>
      </trkpt>
      <trkpt lat="44.09266" lon="7.21681">
        <ele>2340.99</ele>
        <time>2013-12-15T09:46:09Z</time>
      </trkpt>
      <trkpt lat="44.09281" lon="7.21667">
        <ele>2344.87</ele>
        <time>2013-12-15T09:46:43Z</time>
      </trkpt>
      <trkpt lat="44.09298" lon="7.21656">
        <ele>2347.78</ele>
        <time>2013-12-15T09:47:09Z</time>
      </trkpt>
      <trkpt lat="44.09314" lon="7.21643">
        <ele>2349.76</ele>
        <time>2013-12-15T09:47:42Z</time>
      </trkpt>
      <trkpt lat="44.0933" lon="7.2163">
        <ele>2352.14</ele>
        <time>2013-12-15T09:48:18Z</time>
      </trkpt>
      <trkpt lat="44.09348" lon="7.21629">
        <ele>2357.01</ele>
        <time>2013-12-15T09:48:48Z</time>
      </trkpt>
      <trkpt lat="44.09363" lon="7.21628">
        <ele>2361.03</ele>
        <time>2013-12-15T09:49:21Z</time>
      </trkpt>
      <trkpt lat="44.09381" lon="7.21626">
        <ele>2364.57</ele>
        <time>2013-12-15T09:49:47Z</time>
      </trkpt>
      <trkpt lat="44.09398" lon="7.21614">
        <ele>2366.86</ele>
        <time>2013-12-15T09:50:08Z</time>
      </trkpt>
      <trkpt lat="44.09414" lon="7.21602">
        <ele>2368.86</ele>
        <time>2013-12-15T09:50:42Z</time>
      </trkpt>
      <trkpt lat="44.09432" lon="7.21599">
        <ele>2372.16</ele>
        <time>2013-12-15T09:51:07Z</time>
      </trkpt>
      <trkpt lat="44.09451" lon="7.21597">
        <ele>2375.82</ele>
        <time>2013-12-15T09:51:34Z</time>
      </trkpt>
      <trkpt lat="44.09468" lon="7.21591">
        <ele>2379.44</ele>
        <time>2013-12-15T09:52:20Z</time>
      </trkpt>
      <trkpt lat="44.09487" lon="7.21588">
        <ele>2384.39</ele>
        <time>2013-12-15T09:52:49Z</time>
      </trkpt>
      <trkpt lat="44.09504" lon="7.21578">
        <ele>2388.67</ele>
        <time>2013-12-15T09:53:25Z</time>
      </trkpt>
      <trkpt lat="44.09522" lon="7.2158">
        <ele>2394.06</ele>
        <time>2013-12-15T09:56:10Z</time>
      </trkpt>
      <trkpt lat="44.0954" lon="7.21581">
        <ele>2400.27</ele>
        <time>2013-12-15T09:56:58Z</time>
      </trkpt>
      <trkpt lat="44.09558" lon="7.21578">
        <ele>2406.68</ele>
        <time>2013-12-15T09:57:43Z</time>
      </trkpt>
      <trkpt lat="44.09574" lon="7.21567">
        <ele>2412.23</ele>
        <time>2013-12-15T09:58:34Z</time>
      </trkpt>
      <trkpt lat="44.0959" lon="7.21553">
        <ele>2417.44</ele>
        <time>2013-12-15T09:59:20Z</time>
      </trkpt>
      <trkpt lat="44.096" lon="7.21533">
        <ele>2420.32</ele>
        <time>2013-12-15T10:00:03Z</time>
      </trkpt>
      <trkpt lat="44.09613" lon="7.21514">
        <ele>2424.5</ele>
        <time>2013-12-15T10:00:40Z</time>
      </trkpt>
      <trkpt lat="44.09626" lon="7.21497">
        <ele>2432.18</ele>
        <time>2013-12-15T10:01:24Z</time>
      </trkpt>
      <trkpt lat="44.0964" lon="7.2148">
        <ele>2440.39</ele>
        <time>2013-12-15T10:02:09Z</time>
      </trkpt>
      <trkpt lat="44.09653" lon="7.21462">
        <ele>2447.02</ele>
        <time>2013-12-15T10:03:09Z</time>
      </trkpt>
      <trkpt lat="44.09669" lon="7.2145">
        <ele>2454.94</ele>
        <time>2013-12-15T10:04:10Z</time>
      </trkpt>
      <trkpt lat="44.09681" lon="7.21431">
        <ele>2461.58</ele>
        <time>2013-12-15T10:05:13Z</time>
      </trkpt>
      <trkpt lat="44.09693" lon="7.21411">
        <ele>2468.65</ele>
        <time>2013-12-15T10:06:07Z</time>
      </trkpt>
      <trkpt lat="44.09704" lon="7.21392">
        <ele>2478.1</ele>
        <time>2013-12-15T10:06:59Z</time>
      </trkpt>
      <trkpt lat="44.09712" lon="7.21369">
        <ele>2486.33</ele>
        <time>2013-12-15T10:08:02Z</time>
      </trkpt>
      <trkpt lat="44.09722" lon="7.21348">
        <ele>2496.44</ele>
        <time>2013-12-15T10:09:10Z</time>
      </trkpt>
      <trkpt lat="44.09734" lon="7.2133">
        <ele>2502.35</ele>
        <time>2013-12-15T10:10:02Z</time>
      </trkpt>
      <trkpt lat="44.09749" lon="7.21316">
        <ele>2508.31</ele>
        <time>2013-12-15T10:10:55Z</time>
      </trkpt>
      <trkpt lat="44.09761" lon="7.21296">
        <ele>2516.77</ele>
        <time>2013-12-15T10:11:49Z</time>
      </trkpt>
      <trkpt lat="44.0977" lon="7.21274">
        <ele>2524.38</ele>
        <time>2013-12-15T10:12:59Z</time>
      </trkpt>
      <trkpt lat="44.09773" lon="7.21249">
        <ele>2529.56</ele>
        <time>2013-12-15T10:13:56Z</time>
      </trkpt>
      <trkpt lat="44.09782" lon="7.21226">
        <ele>2535.28</ele>
        <time>2013-12-15T10:14:42Z</time>
      </trkpt>
      <trkpt lat="44.09785" lon="7.21201">
        <ele>2539.24</ele>
        <time>2013-12-15T10:15:40Z</time>
      </trkpt>
      <trkpt lat="44.09788" lon="7.21176">
        <ele>2543.86</ele>
        <time>2013-12-15T10:16:36Z</time>
      </trkpt>
      <trkpt lat="44.09798" lon="7.21155">
        <ele>2551.42</ele>
        <time>2013-12-15T10:17:40Z</time>
      </trkpt>
      <trkpt lat="44.09802" lon="7.2113">
        <ele>2553.65</ele>
        <time>2013-12-15T10:18:42Z</time>
      </trkpt>
      <trkpt lat="44.09819" lon="7.2112">
        <ele>2553.02</ele>
        <time>2013-12-15T10:19:09Z</time>
      </trkpt>
      <trkpt lat="44.09835" lon="7.21107">
        <ele>2547.76</ele>
        <time>2013-12-15T10:19:55Z</time>
      </trkpt>
      <trkpt lat="44.09853" lon="7.21105">
        <ele>2548.04</ele>
        <time>2013-12-15T10:26:27Z</time>
      </trkpt>
      <trkpt lat="44.09869" lon="7.21092">
        <ele>2544.96</ele>
        <time>2013-12-15T10:26:59Z</time>
      </trkpt>
      <trkpt lat="44.09885" lon="7.21076">
        <ele>2541.44</ele>
        <time>2013-12-15T10:27:31Z</time>
      </trkpt>
      <trkpt lat="44.09901" lon="7.21064">
        <ele>2541.71</ele>
        <time>2013-12-15T10:27:48Z</time>
      </trkpt>
      <trkpt lat="44.09919" lon="7.21056">
        <ele>2546.09</ele>
        <time>2013-12-15T10:28:11Z</time>
      </trkpt>
      <trkpt lat="44.09934" lon="7.21043">
        <ele>2547.19</ele>
        <time>2013-12-15T10:28:32Z</time>
      </trkpt>
      <trkpt lat="44.09948" lon="7.21026">
        <ele>2546.42</ele>
        <time>2013-12-15T10:28:55Z</time>
      </trkpt>
      <trkpt lat="44.09962" lon="7.2101">
        <ele>2549.76</ele>
        <time>2013-12-15T10:29:15Z</time>
      </trkpt>
      <trkpt lat="44.09974" lon="7.20991">
        <ele>2551.53</ele>
        <time>2013-12-15T10:29:34Z</time>
      </trkpt>
      <trkpt lat="44.09984" lon="7.20969">
        <ele>2548.82</ele>
        <time>2013-12-15T10:30:00Z</time>
      </trkpt>
      <trkpt lat="44.09996" lon="7.2095">
        <ele>2554.56</ele>
        <time>2013-12-15T10:30:24Z</time>
      </trkpt>
      <trkpt lat="44.10002" lon="7.20926">
        <ele>2553.88</ele>
        <time>2013-12-15T10:30:48Z</time>
      </trkpt>
      <trkpt lat="44.10014" lon="7.20907">
        <ele>2556.28</ele>
        <time>2013-12-15T10:31:05Z</time>
      </trkpt>
      <trkpt lat="44.10029" lon="7.2089">
        <ele>2564.24</ele>
        <time>2013-12-15T10:31:25Z</time>
      </trkpt>
      <trkpt lat="44.10046" lon="7.20879">
        <ele>2566.09</ele>
        <time>2013-12-15T10:31:46Z</time>
      </trkpt>
      <trkpt lat="44.10063" lon="7.20869">
        <ele>2569.28</ele>
        <time>2013-12-15T10:32:07Z</time>
      </trkpt>
      <trkpt lat="44.10073" lon="7.20847">
        <ele>2568.14</ele>
        <time>2013-12-15T10:32:39Z</time>
      </trkpt>
      <trkpt lat="44.10089" lon="7.20833">
        <ele>2570.25</ele>
        <time>2013-12-15T10:33:03Z</time>
      </trkpt>
      <trkpt lat="44.10104" lon="7.20817">
        <ele>2573.3</ele>
        <time>2013-12-15T10:33:28Z</time>
      </trkpt>
      <trkpt lat="44.10118" lon="7.20802">
        <ele>2575.26</ele>
        <time>2013-12-15T10:33:47Z</time>
      </trkpt>
      <trkpt lat="44.10131" lon="7.20784">
        <ele>2577.5</ele>
        <time>2013-12-15T10:34:09Z</time>
      </trkpt>
      <trkpt lat="44.10147" lon="7.20769">
        <ele>2582.56</ele>
        <time>2013-12-15T10:34:37Z</time>
      </trkpt>
      <trkpt lat="44.10155" lon="7.20747">
        <ele>2588.28</ele>
        <time>2013-12-15T10:35:24Z</time>
      </trkpt>
      <trkpt lat="44.10168" lon="7.20729">
        <ele>2598.41</ele>
        <time>2013-12-15T10:36:07Z</time>
      </trkpt>
      <trkpt lat="44.10179" lon="7.20708">
        <ele>2598.03</ele>
        <time>2013-12-15T10:37:03Z</time>
      </trkpt>
      <trkpt lat="44.10196" lon="7.20699">
        <ele>2599.54</ele>
        <time>2013-12-15T10:47:57Z</time>
      </trkpt>
      <trkpt lat="44.10214" lon="7.20698">
        <ele>2592.76</ele>
        <time>2013-12-15T10:48:57Z</time>
      </trkpt>
      <trkpt lat="44.1023" lon="7.2071">
        <ele>2585.31</ele>
        <time>2013-12-15T10:49:38Z</time>
      </trkpt>
      <trkpt lat="44.10243" lon="7.20726">
        <ele>2579.65</ele>
        <time>2013-12-15T10:50:06Z</time>
      </trkpt>
      <trkpt lat="44.10259" lon="7.20739">
        <ele>2574.23</ele>
        <time>2013-12-15T10:50:27Z</time>
      </trkpt>
      <trkpt lat="44.10274" lon="7.20753">
        <ele>2568.29</ele>
        <time>2013-12-15T10:50:52Z</time>
      </trkpt>
      <trkpt lat="44.1029" lon="7.20766">
        <ele>2564.36</ele>
        <time>2013-12-15T10:51:11Z</time>
      </trkpt>
      <trkpt lat="44.10307" lon="7.20778">
        <ele>2560.56</ele>
        <time>2013-12-15T10:51:32Z</time>
      </trkpt>
      <trkpt lat="44.10324" lon="7.20787">
        <ele>2556.93</ele>
        <time>2013-12-15T10:51:53Z</time>
      </trkpt>
      <trkpt lat="44.10337" lon="7.20806">
        <ele>2555.94</ele>
        <time>2013-12-15T10:52:12Z</time>
      </trkpt>
      <trkpt lat="44.10354" lon="7.20816">
        <ele>2551.8</ele>
        <time>2013-12-15T10:52:30Z</time>
      </trkpt>
      <trkpt lat="44.10372" lon="7.20823">
        <ele>2547.25</ele>
        <time>2013-12-15T10:52:49Z</time>
      </trkpt>
      <trkpt lat="44.1039" lon="7.20826">
        <ele>2542.54</ele>
        <time>2013-12-15T10:53:06Z</time>
      </trkpt>
      <trkpt lat="44.10408" lon="7.20831">
        <ele>2540.76</ele>
        <time>2013-12-15T10:53:22Z</time>
      </trkpt>
      <trkpt lat="44.10427" lon="7.20835">
        <ele>2540</ele>
        <time>2013-12-15T10:53:44Z</time>
      </trkpt>
      <trkpt lat="44.10445" lon="7.20839">
        <ele>2540</ele>
        <time>2013-12-15T10:54:11Z</time>
      </trkpt>
      <trkpt lat="44.10465" lon="7.20835">
        <ele>2540</ele>
        <time>2013-12-15T10:54:31Z</time>
      </trkpt>
      <trkpt lat="44.10484" lon="7.20839">
        <ele>2540.24</ele>
        <time>2013-12-15T10:54:45Z</time>
      </trkpt>
      <trkpt lat="44.10502" lon="7.2084">
        <ele>2540.86</ele>
        <time>2013-12-15T10:55:01Z</time>
      </trkpt>
      <trkpt lat="44.1052" lon="7.20837">
        <ele>2541.33</ele>
        <time>2013-12-15T10:55:24Z</time>
      </trkpt>
      <trkpt lat="44.10539" lon="7.20831">
        <ele>2538.17</ele>
        <time>2013-12-15T10:55:43Z</time>
      </trkpt>
      <trkpt lat="44.10544" lon="7.20855">
        <ele>2543.64</ele>
        <time>2013-12-15T10:56:38Z</time>
      </trkpt>
      <trkpt lat="44.10561" lon="7.20865">
        <ele>2546.97</ele>
        <time>2013-12-15T10:57:09Z</time>
      </trkpt>
      <trkpt lat="44.1058" lon="7.20862">
        <ele>2551.91</ele>
        <time>2013-12-15T10:57:37Z</time>
      </trkpt>
      <trkpt lat="44.10596" lon="7.20851">
        <ele>2549.85</ele>
        <time>2013-12-15T10:58:03Z</time>
      </trkpt>
      <trkpt lat="44.10613" lon="7.20838">
        <ele>2547.88</ele>
        <time>2013-12-15T10:58:31Z</time>
      </trkpt>
      <trkpt lat="44.10631" lon="7.20829">
        <ele>2550.28</ele>
        <time>2013-12-15T10:58:53Z</time>
      </trkpt>
      <trkpt lat="44.10644" lon="7.20811">
        <ele>2544.32</ele>
        <time>2013-12-15T10:59:30Z</time>
      </trkpt>
      <trkpt lat="44.10659" lon="7.20796">
        <ele>2546.98</ele>
        <time>2013-12-15T10:59:50Z</time>
      </trkpt>
      <trkpt lat="44.10676" lon="7.2079">
        <ele>2550.36</ele>
        <time>2013-12-15T11:00:12Z</time>
      </trkpt>
      <trkpt lat="44.10682" lon="7.20766">
        <ele>2546.09</ele>
        <time>2013-12-15T11:00:52Z</time>
      </trkpt>
      <trkpt lat="44.10697" lon="7.20752">
        <ele>2547.93</ele>
        <time>2013-12-15T11:01:33Z</time>
      </trkpt>
      <trkpt lat="44.1071" lon="7.20734">
        <ele>2545.58</ele>
        <time>2013-12-15T11:02:04Z</time>
      </trkpt>
      <trkpt lat="44.10723" lon="7.20717">
        <ele>2544.3</ele>
        <time>2013-12-15T11:02:35Z</time>
      </trkpt>
      <trkpt lat="44.10736" lon="7.20699">
        <ele>2547.21</ele>
        <time>2013-12-15T11:03:08Z</time>
      </trkpt>
      <trkpt lat="44.10749" lon="7.20682">
        <ele>2552.48</ele>
        <time>2013-12-15T11:03:38Z</time>
      </trkpt>
      <trkpt lat="44.10758" lon="7.2066">
        <ele>2545.72</ele>
        <time>2013-12-15T11:04:12Z</time>
      </trkpt>
      <trkpt lat="44.10773" lon="7.20644">
        <ele>2553.86</ele>
        <time>2013-12-15T11:04:47Z</time>
      </trkpt>
      <trkpt lat="44.10782" lon="7.20623">
        <ele>2555.76</ele>
        <time>2013-12-15T11:05:28Z</time>
      </trkpt>
      <trkpt lat="44.10791" lon="7.206">
        <ele>2553.89</ele>
        <time>2013-12-15T11:06:07Z</time>
      </trkpt>
      <trkpt lat="44.10805" lon="7.20584">
        <ele>2560.73</ele>
        <time>2013-12-15T11:06:42Z</time>
      </trkpt>
      <trkpt lat="44.10817" lon="7.20565">
        <ele>2559.8</ele>
        <time>2013-12-15T11:07:23Z</time>
      </trkpt>
      <trkpt lat="44.10832" lon="7.20549">
        <ele>2560.74</ele>
        <time>2013-12-15T11:08:02Z</time>
      </trkpt>
      <trkpt lat="44.10845" lon="7.20532">
        <ele>2562.6</ele>
        <time>2013-12-15T11:10:34Z</time>
      </trkpt>
      <trkpt lat="44.10857" lon="7.20512">
        <ele>2565.19</ele>
        <time>2013-12-15T11:11:09Z</time>
      </trkpt>
      <trkpt lat="44.10872" lon="7.20498">
        <ele>2569.95</ele>
        <time>2013-12-15T11:11:34Z</time>
      </trkpt>
      <trkpt lat="44.10887" lon="7.20484">
        <ele>2574.99</ele>
        <time>2013-12-15T11:11:54Z</time>
      </trkpt>
      <trkpt lat="44.10901" lon="7.20467">
        <ele>2578.64</ele>
        <time>2013-12-15T11:12:34Z</time>
      </trkpt>
      <trkpt lat="44.10918" lon="7.20458">
        <ele>2583.24</ele>
        <time>2013-12-15T11:12:59Z</time>
      </trkpt>
      <trkpt lat="44.10935" lon="7.20448">
        <ele>2587.75</ele>
        <time>2013-12-15T11:14:02Z</time>
      </trkpt>
      <trkpt lat="44.10952" lon="7.20439">
        <ele>2595.42</ele>
        <time>2013-12-15T11:15:11Z</time>
      </trkpt>
      <trkpt lat="44.10969" lon="7.2043">
        <ele>2604.9</ele>
        <time>2013-12-15T11:16:10Z</time>
      </trkpt>
      <trkpt lat="44.10983" lon="7.20415">
        <ele>2614.73</ele>
        <time>2013-12-15T11:17:35Z</time>
      </trkpt>
      <trkpt lat="44.10999" lon="7.20402">
        <ele>2625.03</ele>
        <time>2013-12-15T11:19:56Z</time>
      </trkpt>
      <trkpt lat="44.1101" lon="7.20382">
        <ele>2631.89</ele>
        <time>2013-12-15T11:21:34Z</time>
      </trkpt>
      <trkpt lat="44.1102" lon="7.20361">
        <ele>2641.13</ele>
        <time>2013-12-15T11:22:19Z</time>
      </trkpt>
      <trkpt lat="44.11029" lon="7.2034">
        <ele>2647.62</ele>
        <time>2013-12-15T11:23:15Z</time>
      </trkpt>
      <trkpt lat="44.11037" lon="7.20317">
        <ele>2651.11</ele>
        <time>2013-12-15T11:24:01Z</time>
      </trkpt>
      <trkpt lat="44.11041" lon="7.20292">
        <ele>2656.26</ele>
        <time>2013-12-15T11:24:52Z</time>
      </trkpt>
      <trkpt lat="44.11041" lon="7.20267">
        <ele>2659.71</ele>
        <time>2013-12-15T11:25:37Z</time>
      </trkpt>
      <trkpt lat="44.11047" lon="7.20243">
        <ele>2660</ele>
        <time>2013-12-15T11:26:21Z</time>
      </trkpt>
      <trkpt lat="44.11047" lon="7.20217">
        <ele>2656.27</ele>
        <time>2013-12-15T11:27:35Z</time>
      </trkpt>
      <trkpt lat="44.11065" lon="7.20221">
        <ele>2658.06</ele>
        <time>2013-12-15T11:54:00Z</time>
      </trkpt>
      <trkpt lat="44.11083" lon="7.20224">
        <ele>2656.3</ele>
        <time>2013-12-15T11:54:24Z</time>
      </trkpt>
      <trkpt lat="44.11102" lon="7.20226">
        <ele>2650.64</ele>
        <time>2013-12-15T11:54:54Z</time>
      </trkpt>
      <trkpt lat="44.1112" lon="7.20222">
        <ele>2645.03</ele>
        <time>2013-12-15T11:55:17Z</time>
      </trkpt>
      <trkpt lat="44.11138" lon="7.20227">
        <ele>2644.39</ele>
        <time>2013-12-15T11:55:49Z</time>
      </trkpt>
      <trkpt lat="44.11156" lon="7.20229">
        <ele>2643.16</ele>
        <time>2013-12-15T11:56:07Z</time>
      </trkpt>
      <trkpt lat="44.11174" lon="7.20227">
        <ele>2639.08</ele>
        <time>2013-12-15T11:56:32Z</time>
      </trkpt>
      <trkpt lat="44.11193" lon="7.20224">
        <ele>2631.14</ele>
        <time>2013-12-15T11:56:52Z</time>
      </trkpt>
      <trkpt lat="44.11211" lon="7.20222">
        <ele>2626.04</ele>
        <time>2013-12-15T11:57:25Z</time>
      </trkpt>
      <trkpt lat="44.11218" lon="7.20245">
        <ele>2629.74</ele>
        <time>2013-12-15T11:58:32Z</time>
      </trkpt>
      <trkpt lat="44.11236" lon="7.20246">
        <ele>2623.76</ele>
        <time>2013-12-15T11:58:53Z</time>
      </trkpt>
      <trkpt lat="44.11254" lon="7.20248">
        <ele>2616.95</ele>
        <time>2013-12-15T11:59:32Z</time>
      </trkpt>
      <trkpt lat="44.11272" lon="7.20248">
        <ele>2605.27</ele>
        <time>2013-12-15T11:59:56Z</time>
      </trkpt>
      <trkpt lat="44.11281" lon="7.2027">
        <ele>2600.17</ele>
        <time>2013-12-15T12:00:21Z</time>
      </trkpt>
      <trkpt lat="44.1127" lon="7.2029">
        <ele>2606.06</ele>
        <time>2013-12-15T12:00:48Z</time>
      </trkpt>
      <trkpt lat="44.11288" lon="7.20297">
        <ele>2600.35</ele>
        <time>2013-12-15T12:01:15Z</time>
      </trkpt>
      <trkpt lat="44.11278" lon="7.20319">
        <ele>2601.03</ele>
        <time>2013-12-15T12:01:50Z</time>
      </trkpt>
      <trkpt lat="44.11297" lon="7.20321">
        <ele>2599.52</ele>
        <time>2013-12-15T12:02:10Z</time>
      </trkpt>
      <trkpt lat="44.11316" lon="7.20322">
        <ele>2592.34</ele>
        <time>2013-12-15T12:02:27Z</time>
      </trkpt>
      <trkpt lat="44.11333" lon="7.2033">
        <ele>2581.87</ele>
        <time>2013-12-15T12:02:49Z</time>
      </trkpt>
      <trkpt lat="44.11351" lon="7.20333">
        <ele>2577.37</ele>
        <time>2013-12-15T12:03:16Z</time>
      </trkpt>
      <trkpt lat="44.1137" lon="7.20329">
        <ele>2569.02</ele>
        <time>2013-12-15T12:03:33Z</time>
      </trkpt>
      <trkpt lat="44.11388" lon="7.20334">
        <ele>2562.42</ele>
        <time>2013-12-15T12:06:34Z</time>
      </trkpt>
      <trkpt lat="44.11405" lon="7.20343">
        <ele>2557.02</ele>
        <time>2013-12-15T12:07:02Z</time>
      </trkpt>
      <trkpt lat="44.11423" lon="7.20351">
        <ele>2553.39</ele>
        <time>2013-12-15T12:07:24Z</time>
      </trkpt>
      <trkpt lat="44.11432" lon="7.20373">
        <ele>2557.69</ele>
        <time>2013-12-15T12:08:10Z</time>
      </trkpt>
      <trkpt lat="44.11438" lon="7.20397">
        <ele>2559.78</ele>
        <time>2013-12-15T12:08:41Z</time>
      </trkpt>
      <trkpt lat="44.11446" lon="7.2042">
        <ele>2556.63</ele>
        <time>2013-12-15T12:10:41Z</time>
      </trkpt>
      <trkpt lat="44.11452" lon="7.20444">
        <ele>2544.15</ele>
        <time>2013-12-15T12:11:14Z</time>
      </trkpt>
      <trkpt lat="44.11451" lon="7.2047">
        <ele>2535.87</ele>
        <time>2013-12-15T12:11:33Z</time>
      </trkpt>
      <trkpt lat="44.1145" lon="7.20495">
        <ele>2532.34</ele>
        <time>2013-12-15T12:11:58Z</time>
      </trkpt>
      <trkpt lat="44.11447" lon="7.2052">
        <ele>2529.62</ele>
        <time>2013-12-15T12:12:36Z</time>
      </trkpt>
      <trkpt lat="44.11452" lon="7.20544">
        <ele>2522.58</ele>
        <time>2013-12-15T12:12:58Z</time>
      </trkpt>
      <trkpt lat="44.1146" lon="7.20567">
        <ele>2515.96</ele>
        <time>2013-12-15T12:13:14Z</time>
      </trkpt>
      <trkpt lat="44.11462" lon="7.20592">
        <ele>2511.85</ele>
        <time>2013-12-15T12:13:50Z</time>
      </trkpt>
      <trkpt lat="44.11461" lon="7.20618">
        <ele>2508.45</ele>
        <time>2013-12-15T12:14:31Z</time>
      </trkpt>
      <trkpt lat="44.11462" lon="7.20644">
        <ele>2503.86</ele>
        <time>2013-12-15T12:14:41Z</time>
      </trkpt>
      <trkpt lat="44.11464" lon="7.2067">
        <ele>2500.66</ele>
        <time>2013-12-15T12:14:58Z</time>
      </trkpt>
      <trkpt lat="44.11473" lon="7.20693">
        <ele>2495.57</ele>
        <time>2013-12-15T12:15:54Z</time>
      </trkpt>
      <trkpt lat="44.1147" lon="7.20718">
        <ele>2493.41</ele>
        <time>2013-12-15T12:16:35Z</time>
      </trkpt>
      <trkpt lat="44.11483" lon="7.20736">
        <ele>2485.97</ele>
        <time>2013-12-15T12:17:08Z</time>
      </trkpt>
      <trkpt lat="44.11482" lon="7.20762">
        <ele>2484.43</ele>
        <time>2013-12-15T12:17:32Z</time>
      </trkpt>
      <trkpt lat="44.11464" lon="7.2077">
        <ele>2483.08</ele>
        <time>2013-12-15T12:18:51Z</time>
      </trkpt>
      <trkpt lat="44.11453" lon="7.2079">
        <ele>2475.97</ele>
        <time>2013-12-15T12:19:20Z</time>
      </trkpt>
      <trkpt lat="44.11441" lon="7.20809">
        <ele>2468.76</ele>
        <time>2013-12-15T12:20:17Z</time>
      </trkpt>
      <trkpt lat="44.11437" lon="7.20835">
        <ele>2463.53</ele>
        <time>2013-12-15T12:21:03Z</time>
      </trkpt>
      <trkpt lat="44.11427" lon="7.20856">
        <ele>2459.38</ele>
        <time>2013-12-15T12:21:21Z</time>
      </trkpt>
      <trkpt lat="44.11425" lon="7.20883">
        <ele>2457.06</ele>
        <time>2013-12-15T12:21:41Z</time>
      </trkpt>
      <trkpt lat="44.11416" lon="7.20904">
        <ele>2454.78</ele>
        <time>2013-12-15T12:22:00Z</time>
      </trkpt>
      <trkpt lat="44.1141" lon="7.20928">
        <ele>2451.83</ele>
        <time>2013-12-15T12:22:19Z</time>
      </trkpt>
      <trkpt lat="44.11412" lon="7.20954">
        <ele>2449.76</ele>
        <time>2013-12-15T12:22:39Z</time>
      </trkpt>
      <trkpt lat="44.11408" lon="7.20979">
        <ele>2447.18</ele>
        <time>2013-12-15T12:22:55Z</time>
      </trkpt>
      <trkpt lat="44.114" lon="7.21003">
        <ele>2444.27</ele>
        <time>2013-12-15T12:23:15Z</time>
      </trkpt>
      <trkpt lat="44.11404" lon="7.21028">
        <ele>2442.61</ele>
        <time>2013-12-15T12:23:53Z</time>
      </trkpt>
      <trkpt lat="44.11412" lon="7.21051">
        <ele>2441.69</ele>
        <time>2013-12-15T12:24:11Z</time>
      </trkpt>
      <trkpt lat="44.11408" lon="7.21076">
        <ele>2437.5</ele>
        <time>2013-12-15T12:24:38Z</time>
      </trkpt>
      <trkpt lat="44.11409" lon="7.21102">
        <ele>2433.43</ele>
        <time>2013-12-15T12:24:59Z</time>
      </trkpt>
      <trkpt lat="44.11416" lon="7.21126">
        <ele>2430.37</ele>
        <time>2013-12-15T12:25:16Z</time>
      </trkpt>
      <trkpt lat="44.11418" lon="7.21151">
        <ele>2425.62</ele>
        <time>2013-12-15T12:25:48Z</time>
      </trkpt>
      <trkpt lat="44.11407" lon="7.21171">
        <ele>2420.77</ele>
        <time>2013-12-15T12:26:37Z</time>
      </trkpt>
      <trkpt lat="44.11403" lon="7.21196">
        <ele>2411.7</ele>
        <time>2013-12-15T12:27:12Z</time>
      </trkpt>
      <trkpt lat="44.11402" lon="7.21222">
        <ele>2402.97</ele>
        <time>2013-12-15T12:27:54Z</time>
      </trkpt>
      <trkpt lat="44.11399" lon="7.21247">
        <ele>2398.44</ele>
        <time>2013-12-15T12:28:23Z</time>
      </trkpt>
      <trkpt lat="44.11407" lon="7.2127">
        <ele>2395.6</ele>
        <time>2013-12-15T12:28:39Z</time>
      </trkpt>
      <trkpt lat="44.11405" lon="7.21295">
        <ele>2392.81</ele>
        <time>2013-12-15T12:29:06Z</time>
      </trkpt>
      <trkpt lat="44.11417" lon="7.21315">
        <ele>2388.35</ele>
        <time>2013-12-15T12:29:32Z</time>
      </trkpt>
      <trkpt lat="44.11423" lon="7.21339">
        <ele>2382.82</ele>
        <time>2013-12-15T12:30:04Z</time>
      </trkpt>
      <trkpt lat="44.11432" lon="7.21362">
        <ele>2378.68</ele>
        <time>2013-12-15T12:30:21Z</time>
      </trkpt>
      <trkpt lat="44.11442" lon="7.21384">
        <ele>2375.65</ele>
        <time>2013-12-15T12:30:48Z</time>
      </trkpt>
      <trkpt lat="44.11455" lon="7.21402">
        <ele>2375.63</ele>
        <time>2013-12-15T12:31:11Z</time>
      </trkpt>
      <trkpt lat="44.11452" lon="7.21427">
        <ele>2373.96</ele>
        <time>2013-12-15T12:31:31Z</time>
      </trkpt>
      <trkpt lat="44.11447" lon="7.21451">
        <ele>2371.34</ele>
        <time>2013-12-15T12:31:53Z</time>
      </trkpt>
      <trkpt lat="44.11444" lon="7.21477">
        <ele>2368.89</ele>
        <time>2013-12-15T12:32:16Z</time>
      </trkpt>
      <trkpt lat="44.11444" lon="7.21503">
        <ele>2366.88</ele>
        <time>2013-12-15T12:32:34Z</time>
      </trkpt>
      <trkpt lat="44.11438" lon="7.21527">
        <ele>2366.72</ele>
        <time>2013-12-15T12:32:50Z</time>
      </trkpt>
      <trkpt lat="44.11431" lon="7.21551">
        <ele>2364.62</ele>
        <time>2013-12-15T12:33:14Z</time>
      </trkpt>
      <trkpt lat="44.1142" lon="7.21572">
        <ele>2362.77</ele>
        <time>2013-12-15T12:33:32Z</time>
      </trkpt>
      <trkpt lat="44.11409" lon="7.21592">
        <ele>2362.06</ele>
        <time>2013-12-15T12:33:47Z</time>
      </trkpt>
      <trkpt lat="44.11401" lon="7.21617">
        <ele>2360.47</ele>
        <time>2013-12-15T12:34:14Z</time>
      </trkpt>
      <trkpt lat="44.11392" lon="7.21639">
        <ele>2357.99</ele>
        <time>2013-12-15T12:34:38Z</time>
      </trkpt>
      <trkpt lat="44.11378" lon="7.21655">
        <ele>2355.7</ele>
        <time>2013-12-15T12:35:13Z</time>
      </trkpt>
      <trkpt lat="44.11374" lon="7.2168">
        <ele>2351.27</ele>
        <time>2013-12-15T12:35:33Z</time>
      </trkpt>
      <trkpt lat="44.11363" lon="7.21701">
        <ele>2346.81</ele>
        <time>2013-12-15T12:35:56Z</time>
      </trkpt>
      <trkpt lat="44.11359" lon="7.21726">
        <ele>2341.16</ele>
        <time>2013-12-15T12:36:16Z</time>
      </trkpt>
      <trkpt lat="44.11347" lon="7.21746">
        <ele>2336.34</ele>
        <time>2013-12-15T12:39:02Z</time>
      </trkpt>
      <trkpt lat="44.11337" lon="7.21767">
        <ele>2329.85</ele>
        <time>2013-12-15T12:39:27Z</time>
      </trkpt>
      <trkpt lat="44.11327" lon="7.21789">
        <ele>2323.65</ele>
        <time>2013-12-15T12:39:53Z</time>
      </trkpt>
      <trkpt lat="44.11316" lon="7.21808">
        <ele>2319.38</ele>
        <time>2013-12-15T12:40:22Z</time>
      </trkpt>
      <trkpt lat="44.11307" lon="7.2183">
        <ele>2312.4</ele>
        <time>2013-12-15T12:40:53Z</time>
      </trkpt>
      <trkpt lat="44.11296" lon="7.2185">
        <ele>2304.65</ele>
        <time>2013-12-15T12:42:25Z</time>
      </trkpt>
      <trkpt lat="44.11278" lon="7.21851">
        <ele>2302.67</ele>
        <time>2013-12-15T12:43:10Z</time>
      </trkpt>
      <trkpt lat="44.1126" lon="7.21855">
        <ele>2297.22</ele>
        <time>2013-12-15T12:43:41Z</time>
      </trkpt>
      <trkpt lat="44.11241" lon="7.21854">
        <ele>2293.74</ele>
        <time>2013-12-15T12:44:01Z</time>
      </trkpt>
      <trkpt lat="44.11225" lon="7.21843">
        <ele>2293.29</ele>
        <time>2013-12-15T12:44:34Z</time>
      </trkpt>
      <trkpt lat="44.11209" lon="7.21829">
        <ele>2289.2</ele>
        <time>2013-12-15T12:45:11Z</time>
      </trkpt>
      <trkpt lat="44.11191" lon="7.21824">
        <ele>2281.43</ele>
        <time>2013-12-15T12:45:47Z</time>
      </trkpt>
      <trkpt lat="44.11178" lon="7.21806">
        <ele>2280.71</ele>
        <time>2013-12-15T12:46:29Z</time>
      </trkpt>
      <trkpt lat="44.11165" lon="7.21823">
        <ele>2266.41</ele>
        <time>2013-12-15T12:47:04Z</time>
      </trkpt>
      <trkpt lat="44.1115" lon="7.21806">
        <ele>2265.19</ele>
        <time>2013-12-15T12:47:33Z</time>
      </trkpt>
      <trkpt lat="44.11133" lon="7.21797">
        <ele>2257.11</ele>
        <time>2013-12-15T12:47:59Z</time>
      </trkpt>
      <trkpt lat="44.11114" lon="7.21798">
        <ele>2244.26</ele>
        <time>2013-12-15T12:48:35Z</time>
      </trkpt>
      <trkpt lat="44.11098" lon="7.2181">
        <ele>2240.64</ele>
        <time>2013-12-15T12:48:59Z</time>
      </trkpt>
      <trkpt lat="44.1108" lon="7.21814">
        <ele>2238.51</ele>
        <time>2013-12-15T12:49:24Z</time>
      </trkpt>
      <trkpt lat="44.11063" lon="7.21803">
        <ele>2233.72</ele>
        <time>2013-12-15T12:49:54Z</time>
      </trkpt>
      <trkpt lat="44.11046" lon="7.21795">
        <ele>2229.46</ele>
        <time>2013-12-15T12:50:43Z</time>
      </trkpt>
      <trkpt lat="44.11027" lon="7.21797">
        <ele>2226.12</ele>
        <time>2013-12-15T12:51:09Z</time>
      </trkpt>
      <trkpt lat="44.11008" lon="7.21798">
        <ele>2222.47</ele>
        <time>2013-12-15T12:51:28Z</time>
      </trkpt>
      <trkpt lat="44.1099" lon="7.21798">
        <ele>2216.31</ele>
        <time>2013-12-15T12:51:49Z</time>
      </trkpt>
      <trkpt lat="44.10975" lon="7.21811">
        <ele>2208.75</ele>
        <time>2013-12-15T12:52:06Z</time>
      </trkpt>
      <trkpt lat="44.10957" lon="7.21812">
        <ele>2209.23</ele>
        <time>2013-12-15T12:52:22Z</time>
      </trkpt>
      <trkpt lat="44.10941" lon="7.21824">
        <ele>2210.6</ele>
        <time>2013-12-15T12:52:46Z</time>
      </trkpt>
      <trkpt lat="44.10926" lon="7.2184">
        <ele>2212.98</ele>
        <time>2013-12-15T12:53:11Z</time>
      </trkpt>
      <trkpt lat="44.10909" lon="7.2185">
        <ele>2214.31</ele>
        <time>2013-12-15T12:53:33Z</time>
      </trkpt>
      <trkpt lat="44.10894" lon="7.21867">
        <ele>2212.41</ele>
        <time>2013-12-15T12:53:53Z</time>
      </trkpt>
      <trkpt lat="44.10884" lon="7.21888">
        <ele>2208.7</ele>
        <time>2013-12-15T12:54:16Z</time>
      </trkpt>
      <trkpt lat="44.10872" lon="7.21908">
        <ele>2203.19</ele>
        <time>2013-12-15T12:55:18Z</time>
      </trkpt>
      <trkpt lat="44.10858" lon="7.21925">
        <ele>2197.12</ele>
        <time>2013-12-15T12:56:02Z</time>
      </trkpt>
      <trkpt lat="44.1084" lon="7.21928">
        <ele>2185.15</ele>
        <time>2013-12-15T12:56:58Z</time>
      </trkpt>
      <trkpt lat="44.10822" lon="7.21924">
        <ele>2172.27</ele>
        <time>2013-12-15T12:57:44Z</time>
      </trkpt>
      <trkpt lat="44.10814" lon="7.21901">
        <ele>2166.05</ele>
        <time>2013-12-15T12:58:38Z</time>
      </trkpt>
      <trkpt lat="44.10801" lon="7.21883">
        <ele>2159.56</ele>
        <time>2013-12-15T12:59:09Z</time>
      </trkpt>
      <trkpt lat="44.10791" lon="7.21905">
        <ele>2157.89</ele>
        <time>2013-12-15T13:03:04Z</time>
      </trkpt>
      <trkpt lat="44.10777" lon="7.2192">
        <ele>2154.58</ele>
        <time>2013-12-15T13:03:26Z</time>
      </trkpt>
      <trkpt lat="44.10768" lon="7.21942">
        <ele>2149.71</ele>
        <time>2013-12-15T13:03:52Z</time>
      </trkpt>
      <trkpt lat="44.10757" lon="7.21962">
        <ele>2142.73</ele>
        <time>2013-12-15T13:04:52Z</time>
      </trkpt>
      <trkpt lat="44.10739" lon="7.21965">
        <ele>2140.92</ele>
        <time>2013-12-15T13:05:15Z</time>
      </trkpt>
      <trkpt lat="44.10721" lon="7.21973">
        <ele>2141.81</ele>
        <time>2013-12-15T13:05:49Z</time>
      </trkpt>
      <trkpt lat="44.10704" lon="7.2198">
        <ele>2139.36</ele>
        <time>2013-12-15T13:06:41Z</time>
      </trkpt>
      <trkpt lat="44.10685" lon="7.21978">
        <ele>2139.04</ele>
        <time>2013-12-15T13:07:15Z</time>
      </trkpt>
      <trkpt lat="44.10668" lon="7.21982">
        <ele>2134.93</ele>
        <time>2013-12-15T13:07:43Z</time>
      </trkpt>
      <trkpt lat="44.1065" lon="7.21986">
        <ele>2125.71</ele>
        <time>2013-12-15T13:08:16Z</time>
      </trkpt>
      <trkpt lat="44.10631" lon="7.21987">
        <ele>2118.52</ele>
        <time>2013-12-15T13:08:42Z</time>
      </trkpt>
      <trkpt lat="44.10616" lon="7.21973">
        <ele>2116.82</ele>
        <time>2013-12-15T13:10:04Z</time>
      </trkpt>
      <trkpt lat="44.10598" lon="7.21971">
        <ele>2112.1</ele>
        <time>2013-12-15T13:10:35Z</time>
      </trkpt>
      <trkpt lat="44.10583" lon="7.21985">
        <ele>2102.95</ele>
        <time>2013-12-15T13:11:13Z</time>
      </trkpt>
      <trkpt lat="44.10569" lon="7.22001">
        <ele>2095.18</ele>
        <time>2013-12-15T13:11:44Z</time>
      </trkpt>
      <trkpt lat="44.10551" lon="7.22004">
        <ele>2091.53</ele>
        <time>2013-12-15T13:13:04Z</time>
      </trkpt>
      <trkpt lat="44.10543" lon="7.22027">
        <ele>2082.54</ele>
        <time>2013-12-15T13:14:16Z</time>
      </trkpt>
      <trkpt lat="44.10533" lon="7.22049">
        <ele>2076.17</ele>
        <time>2013-12-15T13:14:46Z</time>
      </trkpt>
      <trkpt lat="44.10531" lon="7.22074">
        <ele>2070.41</ele>
        <time>2013-12-15T13:15:06Z</time>
      </trkpt>
      <trkpt lat="44.10524" lon="7.22098">
        <ele>2065.72</ele>
        <time>2013-12-15T13:15:33Z</time>
      </trkpt>
      <trkpt lat="44.10531" lon="7.22122">
        <ele>2059.82</ele>
        <time>2013-12-15T13:16:09Z</time>
      </trkpt>
      <trkpt lat="44.10538" lon="7.22145">
        <ele>2053.56</ele>
        <time>2013-12-15T13:16:52Z</time>
      </trkpt>
      <trkpt lat="44.1053" lon="7.22167">
        <ele>2047.09</ele>
        <time>2013-12-15T13:17:47Z</time>
      </trkpt>
      <trkpt lat="44.10513" lon="7.22177">
        <ele>2044.08</ele>
        <time>2013-12-15T13:19:02Z</time>
      </trkpt>
      <trkpt lat="44.10494" lon="7.22184">
        <ele>2040.53</ele>
        <time>2013-12-15T13:19:34Z</time>
      </trkpt>
      <trkpt lat="44.10498" lon="7.22209">
        <ele>2031.72</ele>
        <time>2013-12-15T13:20:16Z</time>
      </trkpt>
      <trkpt lat="44.10487" lon="7.22231">
        <ele>2019.08</ele>
        <time>2013-12-15T13:21:07Z</time>
      </trkpt>
      <trkpt lat="44.10519" lon="7.22244">
        <ele>2013.52</ele>
        <time>2013-12-15T13:24:00Z</time>
      </trkpt>
      <trkpt lat="44.10493" lon="7.22246">
        <ele>2011.83</ele>
        <time>2013-12-15T13:24:23Z</time>
      </trkpt>
      <trkpt lat="44.10495" lon="7.22271">
        <ele>1998.79</ele>
        <time>2013-12-15T13:25:04Z</time>
      </trkpt>
      <trkpt lat="44.10496" lon="7.22297">
        <ele>1987.1</ele>
        <time>2013-12-15T13:25:24Z</time>
      </trkpt>
      <trkpt lat="44.10509" lon="7.22313">
        <ele>1980.56</ele>
        <time>2013-12-15T13:25:46Z</time>
      </trkpt>
      <trkpt lat="44.10528" lon="7.22313">
        <ele>1982.13</ele>
        <time>2013-12-15T13:26:04Z</time>
      </trkpt>
      <trkpt lat="44.10536" lon="7.22336">
        <ele>1972.62</ele>
        <time>2013-12-15T13:26:35Z</time>
      </trkpt>
      <trkpt lat="44.10532" lon="7.22361">
        <ele>1960.22</ele>
        <time>2013-12-15T13:26:52Z</time>
      </trkpt>
      <trkpt lat="44.10548" lon="7.22373">
        <ele>1957.18</ele>
        <time>2013-12-15T13:28:10Z</time>
      </trkpt>
      <trkpt lat="44.10567" lon="7.2238">
        <ele>1954.12</ele>
        <time>2013-12-15T13:28:44Z</time>
      </trkpt>
      <trkpt lat="44.10578" lon="7.22401">
        <ele>1944.93</ele>
        <time>2013-12-15T13:29:02Z</time>
      </trkpt>
      <trkpt lat="44.10586" lon="7.22424">
        <ele>1936.36</ele>
        <time>2013-12-15T13:29:50Z</time>
      </trkpt>
      <trkpt lat="44.10589" lon="7.2245">
        <ele>1927.46</ele>
        <time>2013-12-15T13:30:22Z</time>
      </trkpt>
      <trkpt lat="44.10601" lon="7.2247">
        <ele>1919.01</ele>
        <time>2013-12-15T13:31:06Z</time>
      </trkpt>
      <trkpt lat="44.1061" lon="7.22492">
        <ele>1912.25</ele>
        <time>2013-12-15T13:31:29Z</time>
      </trkpt>
      <trkpt lat="44.10601" lon="7.22515">
        <ele>1906.07</ele>
        <time>2013-12-15T13:31:54Z</time>
      </trkpt>
      <trkpt lat="44.10594" lon="7.22538">
        <ele>1899.66</ele>
        <time>2013-12-15T13:32:16Z</time>
      </trkpt>
      <trkpt lat="44.10589" lon="7.22562">
        <ele>1892.57</ele>
        <time>2013-12-15T13:32:40Z</time>
      </trkpt>
      <trkpt lat="44.10595" lon="7.22586">
        <ele>1887.18</ele>
        <time>2013-12-15T13:32:59Z</time>
      </trkpt>
      <trkpt lat="44.10586" lon="7.22608">
        <ele>1881.15</ele>
        <time>2013-12-15T13:33:26Z</time>
      </trkpt>
      <trkpt lat="44.10579" lon="7.22631">
        <ele>1878.84</ele>
        <time>2013-12-15T13:34:37Z</time>
      </trkpt>
      <trkpt lat="44.10572" lon="7.22654">
        <ele>1873.99</ele>
        <time>2013-12-15T13:35:16Z</time>
      </trkpt>
      <trkpt lat="44.10567" lon="7.2268">
        <ele>1868.12</ele>
        <time>2013-12-15T13:35:41Z</time>
      </trkpt>
      <trkpt lat="44.10559" lon="7.22703">
        <ele>1861.24</ele>
        <time>2013-12-15T13:35:57Z</time>
      </trkpt>
      <trkpt lat="44.10556" lon="7.22728">
        <ele>1856.39</ele>
        <time>2013-12-15T13:36:25Z</time>
      </trkpt>
      <trkpt lat="44.10556" lon="7.22754">
        <ele>1851.56</ele>
        <time>2013-12-15T13:36:45Z</time>
      </trkpt>
      <trkpt lat="44.10549" lon="7.22777">
        <ele>1842.84</ele>
        <time>2013-12-15T13:37:12Z</time>
      </trkpt>
      <trkpt lat="44.10541" lon="7.228">
        <ele>1834.13</ele>
        <time>2013-12-15T13:37:58Z</time>
      </trkpt>
      <trkpt lat="44.10527" lon="7.22818">
        <ele>1822.56</ele>
        <time>2013-12-15T13:38:55Z</time>
      </trkpt>
      <trkpt lat="44.1051" lon="7.22828">
        <ele>1808.25</ele>
        <time>2013-12-15T13:39:58Z</time>
      </trkpt>
      <trkpt lat="44.10496" lon="7.22845">
        <ele>1800.78</ele>
        <time>2013-12-15T13:40:21Z</time>
      </trkpt>
      <trkpt lat="44.10485" lon="7.22865">
        <ele>1799.3</ele>
        <time>2013-12-15T13:40:38Z</time>
      </trkpt>
      <trkpt lat="44.10478" lon="7.2289">
        <ele>1795.23</ele>
        <time>2013-12-15T13:40:50Z</time>
      </trkpt>
      <trkpt lat="44.10475" lon="7.22915">
        <ele>1793.03</ele>
        <time>2013-12-15T13:41:59Z</time>
      </trkpt>
      <trkpt lat="44.10461" lon="7.22931">
        <ele>1784.45</ele>
        <time>2013-12-15T13:42:25Z</time>
      </trkpt>
      <trkpt lat="44.10451" lon="7.22953">
        <ele>1777</ele>
        <time>2013-12-15T13:42:49Z</time>
      </trkpt>
      <trkpt lat="44.10443" lon="7.22975">
        <ele>1770.85</ele>
        <time>2013-12-15T13:43:07Z</time>
      </trkpt>
      <trkpt lat="44.10437" lon="7.22999">
        <ele>1764.81</ele>
        <time>2013-12-15T13:43:40Z</time>
      </trkpt>
      <trkpt lat="44.10432" lon="7.23024">
        <ele>1759.58</ele>
        <time>2013-12-15T13:44:22Z</time>
      </trkpt>
      <trkpt lat="44.10429" lon="7.23049">
        <ele>1754.7</ele>
        <time>2013-12-15T13:44:45Z</time>
      </trkpt>
      <trkpt lat="44.10412" lon="7.23062">
        <ele>1744.58</ele>
        <time>2013-12-15T13:45:12Z</time>
      </trkpt>
      <trkpt lat="44.10398" lon="7.23078">
        <ele>1737.27</ele>
        <time>2013-12-15T13:45:43Z</time>
      </trkpt>
      <trkpt lat="44.1038" lon="7.23081">
        <ele>1729.14</ele>
        <time>2013-12-15T13:47:08Z</time>
      </trkpt>
      <trkpt lat="44.10362" lon="7.23083">
        <ele>1720.35</ele>
        <time>2013-12-15T13:47:45Z</time>
      </trkpt>
      <trkpt lat="44.10345" lon="7.23096">
        <ele>1718.36</ele>
        <time>2013-12-15T13:48:04Z</time>
      </trkpt>
      <trkpt lat="44.10334" lon="7.23115">
        <ele>1714.33</ele>
        <time>2013-12-15T13:48:45Z</time>
      </trkpt>
      <trkpt lat="44.10326" lon="7.23139">
        <ele>1709.19</ele>
        <time>2013-12-15T13:49:13Z</time>
      </trkpt>
      <trkpt lat="44.10315" lon="7.23161">
        <ele>1701.74</ele>
        <time>2013-12-15T13:49:28Z</time>
      </trkpt>
      <trkpt lat="44.103" lon="7.23176">
        <ele>1695.3</ele>
        <time>2013-12-15T13:49:48Z</time>
      </trkpt>
      <trkpt lat="44.10283" lon="7.23184">
        <ele>1689.42</ele>
        <time>2013-12-15T13:50:03Z</time>
      </trkpt>
      <trkpt lat="44.10275" lon="7.23207">
        <ele>1682.33</ele>
        <time>2013-12-15T13:50:22Z</time>
      </trkpt>
      <trkpt lat="44.10268" lon="7.23231">
        <ele>1677.91</ele>
        <time>2013-12-15T13:50:39Z</time>
      </trkpt>
      <trkpt lat="44.10256" lon="7.2325">
        <ele>1673.89</ele>
        <time>2013-12-15T13:50:57Z</time>
      </trkpt>
      <trkpt lat="44.10252" lon="7.23274">
        <ele>1669.05</ele>
        <time>2013-12-15T13:51:22Z</time>
      </trkpt>
      <trkpt lat="44.10243" lon="7.23299">
        <ele>1664.88</ele>
        <time>2013-12-15T13:51:43Z</time>
      </trkpt>
      <trkpt lat="44.10226" lon="7.23291">
        <ele>1663.96</ele>
        <time>2013-12-15T13:52:12Z</time>
      </trkpt>
      <trkpt lat="44.10209" lon="7.23301">
        <ele>1660.89</ele>
        <time>2013-12-15T13:52:30Z</time>
      </trkpt>
      <trkpt lat="44.10193" lon="7.23315">
        <ele>1657.9</ele>
        <time>2013-12-15T13:52:59Z</time>
      </trkpt>
      <trkpt lat="44.10177" lon="7.23329">
        <ele>1656.7</ele>
        <time>2013-12-15T13:53:13Z</time>
      </trkpt>
      <trkpt lat="44.10163" lon="7.23345">
        <ele>1653.4</ele>
        <time>2013-12-15T13:53:30Z</time>
      </trkpt>
      <trkpt lat="44.10148" lon="7.23361">
        <ele>1650.83</ele>
        <time>2013-12-15T13:53:52Z</time>
      </trkpt>
      <trkpt lat="44.10134" lon="7.23377">
        <ele>1646.59</ele>
        <time>2013-12-15T13:54:10Z</time>
      </trkpt>
      <trkpt lat="44.10118" lon="7.23391">
        <ele>1644.71</ele>
        <time>2013-12-15T13:54:27Z</time>
      </trkpt>
      <trkpt lat="44.101" lon="7.234">
        <ele>1646.21</ele>
        <time>2013-12-15T13:54:41Z</time>
      </trkpt>
      <trkpt lat="44.10083" lon="7.23405">
        <ele>1648.08</ele>
        <time>2013-12-15T13:55:03Z</time>
      </trkpt>
      <trkpt lat="44.10065" lon="7.23415">
        <ele>1646.95</ele>
        <time>2013-12-15T13:55:17Z</time>
      </trkpt>
      <trkpt lat="44.10048" lon="7.23425">
        <ele>1646.4</ele>
        <time>2013-12-15T13:55:40Z</time>
      </trkpt>
      <trkpt lat="44.10032" lon="7.23437">
        <ele>1643.38</ele>
        <time>2013-12-15T13:55:57Z</time>
      </trkpt>
      <trkpt lat="44.10013" lon="7.23445">
        <ele>1645.11</ele>
        <time>2013-12-15T13:56:18Z</time>
      </trkpt>
      <trkpt lat="44.09995" lon="7.2345">
        <ele>1648.51</ele>
        <time>2013-12-15T13:56:40Z</time>
      </trkpt>
      <trkpt lat="44.09977" lon="7.23452">
        <ele>1650.45</ele>
        <time>2013-12-15T13:56:51Z</time>
      </trkpt>
      <trkpt lat="44.09959" lon="7.23448">
        <ele>1652.85</ele>
        <time>2013-12-15T13:57:08Z</time>
      </trkpt>
      <trkpt lat="44.0994" lon="7.2345">
        <ele>1651.2</ele>
        <time>2013-12-15T13:57:29Z</time>
      </trkpt>
      <trkpt lat="44.09923" lon="7.23457">
        <ele>1644.72</ele>
        <time>2013-12-15T13:57:44Z</time>
      </trkpt>
      <trkpt lat="44.09904" lon="7.23454">
        <ele>1640.83</ele>
        <time>2013-12-15T13:57:58Z</time>
      </trkpt>
      <trkpt lat="44.09887" lon="7.23448">
        <ele>1638.05</ele>
        <time>2013-12-15T13:58:17Z</time>
      </trkpt>
      <trkpt lat="44.09867" lon="7.23447">
        <ele>1631.49</ele>
        <time>2013-12-15T13:59:31Z</time>
      </trkpt>
      <trkpt lat="44.09849" lon="7.23443">
        <ele>1628.62</ele>
        <time>2013-12-15T13:59:45Z</time>
      </trkpt>
      <trkpt lat="44.0983" lon="7.23439">
        <ele>1626.73</ele>
        <time>2013-12-15T14:00:03Z</time>
      </trkpt>
      <trkpt lat="44.09812" lon="7.2343">
        <ele>1627.12</ele>
        <time>2013-12-15T14:00:17Z</time>
      </trkpt>
      <trkpt lat="44.09795" lon="7.23426">
        <ele>1625.39</ele>
        <time>2013-12-15T14:00:33Z</time>
      </trkpt>
      <trkpt lat="44.09779" lon="7.23414">
        <ele>1626.11</ele>
        <time>2013-12-15T14:00:46Z</time>
      </trkpt>
      <trkpt lat="44.09771" lon="7.2339">
        <ele>1634</ele>
        <time>2013-12-15T14:01:00Z</time>
      </trkpt>
      <trkpt lat="44.09756" lon="7.23372">
        <ele>1643.36</ele>
        <time>2013-12-15T14:01:15Z</time>
      </trkpt>
      <trkpt lat="44.09738" lon="7.23372">
        <ele>1646.24</ele>
        <time>2013-12-15T14:01:30Z</time>
      </trkpt>
      <trkpt lat="44.0972" lon="7.23376">
        <ele>1647.3</ele>
        <time>2013-12-15T14:01:45Z</time>
      </trkpt>
      <trkpt lat="44.09702" lon="7.2338">
        <ele>1645.99</ele>
        <time>2013-12-15T14:01:59Z</time>
      </trkpt>
      <trkpt lat="44.09683" lon="7.23378">
        <ele>1649.68</ele>
        <time>2013-12-15T14:03:58Z</time>
      </trkpt>
      <trkpt lat="44.09667" lon="7.23391">
        <ele>1642.69</ele>
        <time>2013-12-15T14:04:22Z</time>
      </trkpt>
      <trkpt lat="44.09649" lon="7.23402">
        <ele>1635.75</ele>
        <time>2013-12-15T14:04:43Z</time>
      </trkpt>
      <trkpt lat="44.0963" lon="7.23403">
        <ele>1633.76</ele>
        <time>2013-12-15T14:04:57Z</time>
      </trkpt>
      <trkpt lat="44.09612" lon="7.23399">
        <ele>1632.85</ele>
        <time>2013-12-15T14:05:19Z</time>
      </trkpt>
      <trkpt lat="44.09595" lon="7.23388">
        <ele>1634.28</ele>
        <time>2013-12-15T14:05:36Z</time>
      </trkpt>
      <trkpt lat="44.09578" lon="7.23381">
        <ele>1633.58</ele>
        <time>2013-12-15T14:05:51Z</time>
      </trkpt>
      <trkpt lat="44.09562" lon="7.23369">
        <ele>1634.23</ele>
        <time>2013-12-15T14:06:04Z</time>
      </trkpt>
      <trkpt lat="44.09546" lon="7.23359">
        <ele>1635.81</ele>
        <time>2013-12-15T14:06:21Z</time>
      </trkpt>
      <trkpt lat="44.09528" lon="7.23352">
        <ele>1640.54</ele>
        <time>2013-12-15T14:06:44Z</time>
      </trkpt>
      <trkpt lat="44.0951" lon="7.23357">
        <ele>1639.16</ele>
        <time>2013-12-15T14:07:04Z</time>
      </trkpt>
      <trkpt lat="44.09491" lon="7.23361">
        <ele>1637.86</ele>
        <time>2013-12-15T14:07:25Z</time>
      </trkpt>
      <trkpt lat="44.09472" lon="7.23355">
        <ele>1639.5</ele>
        <time>2013-12-15T14:07:41Z</time>
      </trkpt>
      <trkpt lat="44.09454" lon="7.23351">
        <ele>1648.85</ele>
        <time>2013-12-15T14:08:04Z</time>
      </trkpt>
      <trkpt lat="44.09437" lon="7.2336">
        <ele>1648.97</ele>
        <time>2013-12-15T14:08:22Z</time>
      </trkpt>
      <trkpt lat="44.09418" lon="7.23364">
        <ele>1648.78</ele>
        <time>2013-12-15T14:08:41Z</time>
      </trkpt>
      <trkpt lat="44.09401" lon="7.23372">
        <ele>1650.55</ele>
        <time>2013-12-15T14:08:56Z</time>
      </trkpt>
      <trkpt lat="44.09389" lon="7.23393">
        <ele>1650.28</ele>
        <time>2013-12-15T14:09:15Z</time>
      </trkpt>
      <trkpt lat="44.09385" lon="7.23418">
        <ele>1646.96</ele>
        <time>2013-12-15T14:09:40Z</time>
      </trkpt>
      <trkpt lat="44.09372" lon="7.23437">
        <ele>1646.96</ele>
        <time>2013-12-15T14:10:01Z</time>
      </trkpt>
      <trkpt lat="44.09355" lon="7.23447">
        <ele>1647.68</ele>
        <time>2013-12-15T14:10:21Z</time>
      </trkpt>
      <trkpt lat="44.09336" lon="7.23448">
        <ele>1647.74</ele>
        <time>2013-12-15T14:10:39Z</time>
      </trkpt>
      <trkpt lat="44.09318" lon="7.23442">
        <ele>1649.18</ele>
        <time>2013-12-15T14:11:01Z</time>
      </trkpt>
      <trkpt lat="44.093" lon="7.23439">
        <ele>1649.61</ele>
        <time>2013-12-15T14:11:20Z</time>
      </trkpt>
      <trkpt lat="44.09282" lon="7.23443">
        <ele>1646.75</ele>
        <time>2013-12-15T14:11:46Z</time>
      </trkpt>
      <trkpt lat="44.09261" lon="7.23437">
        <ele>1647.22</ele>
        <time>2013-12-15T14:12:08Z</time>
      </trkpt>
      <trkpt lat="44.09242" lon="7.23436">
        <ele>1646.38</ele>
        <time>2013-12-15T14:12:25Z</time>
      </trkpt>
      <trkpt lat="44.09222" lon="7.23434">
        <ele>1647.1</ele>
        <time>2013-12-15T14:12:44Z</time>
      </trkpt>
      <trkpt lat="44.09202" lon="7.23432">
        <ele>1648.31</ele>
        <time>2013-12-15T14:12:53Z</time>
      </trkpt>
      <trkpt lat="44.09183" lon="7.2344">
        <ele>1646.75</ele>
        <time>2013-12-15T14:13:03Z</time>
      </trkpt>
      <trkpt lat="44.09166" lon="7.2345">
        <ele>1645.4</ele>
        <time>2013-12-15T14:13:20Z</time>
      </trkpt>
      <trkpt lat="44.09147" lon="7.2345">
        <ele>1646.54</ele>
        <time>2013-12-15T14:13:41Z</time>
      </trkpt>
      <trkpt lat="44.09129" lon="7.23454">
        <ele>1646.34</ele>
        <time>2013-12-15T14:13:48Z</time>
      </trkpt>
      <trkpt lat="44.09111" lon="7.23465">
        <ele>1643.99</ele>
        <time>2013-12-15T14:13:55Z</time>
      </trkpt>
      <trkpt lat="44.09093" lon="7.23471">
        <ele>1643.78</ele>
        <time>2013-12-15T14:14:09Z</time>
      </trkpt>
      <trkpt lat="44.09074" lon="7.23472">
        <ele>1645.97</ele>
        <time>2013-12-15T14:14:23Z</time>
      </trkpt>
      <trkpt lat="44.09056" lon="7.23478">
        <ele>1647.9</ele>
        <time>2013-12-15T14:14:40Z</time>
      </trkpt>
      <trkpt lat="44.09038" lon="7.23482">
        <ele>1650.2</ele>
        <time>2013-12-15T14:14:58Z</time>
      </trkpt>
      <trkpt lat="44.0902" lon="7.23486">
        <ele>1651.83</ele>
        <time>2013-12-15T14:15:15Z</time>
      </trkpt>
      <trkpt lat="44.09002" lon="7.23493">
        <ele>1652.37</ele>
        <time>2013-12-15T14:15:43Z</time>
      </trkpt>
      <trkpt lat="44.08984" lon="7.23497">
        <ele>1653.58</ele>
        <time>2013-12-15T14:16:00Z</time>
      </trkpt>
      <trkpt lat="44.08965" lon="7.23497">
        <ele>1655.76</ele>
        <time>2013-12-15T14:16:18Z</time>
      </trkpt>
      <trkpt lat="44.08945" lon="7.23503">
        <ele>1654.55</ele>
        <time>2013-12-15T14:16:23Z</time>
      </trkpt>
      <trkpt lat="44.08926" lon="7.23505">
        <ele>1655.15</ele>
        <time>2013-12-15T14:16:40Z</time>
      </trkpt>
      <trkpt lat="44.08907" lon="7.23505">
        <ele>1655.56</ele>
        <time>2013-12-15T14:16:56Z</time>
      </trkpt>
      <trkpt lat="44.08889" lon="7.23502">
        <ele>1657.24</ele>
        <time>2013-12-15T14:17:29Z</time>
      </trkpt>
      <trkpt lat="44.08871" lon="7.235">
        <ele>1652.73</ele>
        <time>2013-12-15T14:17:41Z</time>
      </trkpt>
      <trkpt lat="44.0885" lon="7.235">
        <ele>1645.84</ele>
        <time>2013-12-15T14:17:51Z</time>
      </trkpt>
      <trkpt lat="44.08832" lon="7.23495">
        <ele>1638.08</ele>
        <time>2013-12-15T14:18:09Z</time>
      </trkpt>
      <trkpt lat="44.08823" lon="7.23473">
        <ele>1630.6</ele>
        <time>2013-12-15T14:18:54Z</time>
      </trkpt>
      <trkpt lat="44.08819" lon="7.23448">
        <ele>1636.74</ele>
        <time>2013-12-15T14:19:10Z</time>
      </trkpt>
      <trkpt lat="44.08809" lon="7.23424">
        <ele>1641.2</ele>
        <time>2013-12-15T14:19:44Z</time>
      </trkpt>
      <trkpt lat="44.08797" lon="7.23405">
        <ele>1646.48</ele>
        <time>2013-12-15T14:19:51Z</time>
      </trkpt>
      <trkpt lat="44.08782" lon="7.23388">
        <ele>1650.46</ele>
        <time>2013-12-15T14:20:01Z</time>
      </trkpt>
      <trkpt lat="44.08767" lon="7.23373">
        <ele>1655.62</ele>
        <time>2013-12-15T14:20:16Z</time>
      </trkpt>
      <trkpt lat="44.08753" lon="7.23353">
        <ele>1661.93</ele>
        <time>2013-12-15T14:20:39Z</time>
      </trkpt>
      <trkpt lat="44.08735" lon="7.23363">
        <ele>1665.02</ele>
        <time>2013-12-15T14:20:57Z</time>
      </trkpt>
      <trkpt lat="44.08721" lon="7.23381">
        <ele>1665.7</ele>
        <time>2013-12-15T14:21:10Z</time>
      </trkpt>
      <trkpt lat="44.08706" lon="7.23396">
        <ele>1668.66</ele>
        <time>2013-12-15T14:21:22Z</time>
      </trkpt>
      <trkpt lat="44.08692" lon="7.23413">
        <ele>1668.68</ele>
        <time>2013-12-15T14:21:50Z</time>
      </trkpt>
      <trkpt lat="44.08677" lon="7.23427">
        <ele>1667.91</ele>
        <time>2013-12-15T14:22:06Z</time>
      </trkpt>
      <trkpt lat="44.0866" lon="7.2344">
        <ele>1667.79</ele>
        <time>2013-12-15T14:22:22Z</time>
      </trkpt>
      <trkpt lat="44.08644" lon="7.23451">
        <ele>1666.8</ele>
        <time>2013-12-15T14:22:38Z</time>
      </trkpt>
      <trkpt lat="44.08626" lon="7.2345">
        <ele>1672.9</ele>
        <time>2013-12-15T14:23:03Z</time>
      </trkpt>
      <trkpt lat="44.08608" lon="7.23458">
        <ele>1675.53</ele>
        <time>2013-12-15T14:23:19Z</time>
      </trkpt>
      <trkpt lat="44.0859" lon="7.23473">
        <ele>1676.8</ele>
        <time>2013-12-15T14:23:34Z</time>
      </trkpt>
      <trkpt lat="44.08577" lon="7.23491">
        <ele>1680.02</ele>
        <time>2013-12-15T14:23:46Z</time>
      </trkpt>
      <trkpt lat="44.08569" lon="7.23514">
        <ele>1679.25</ele>
        <time>2013-12-15T14:24:07Z</time>
      </trkpt>
      <trkpt lat="44.08558" lon="7.23534">
        <ele>1679.19</ele>
        <time>2013-12-15T14:24:31Z</time>
      </trkpt>
      <trkpt lat="44.08541" lon="7.23545">
        <ele>1683.02</ele>
        <time>2013-12-15T14:24:57Z</time>
      </trkpt>
      <trkpt lat="44.08523" lon="7.23548">
        <ele>1689.38</ele>
        <time>2013-12-15T14:25:22Z</time>
      </trkpt>
      <trkpt lat="44.08505" lon="7.23553">
        <ele>1695.05</ele>
        <time>2013-12-15T14:25:48Z</time>
      </trkpt>
      <trkpt lat="44.08487" lon="7.23561">
        <ele>1696.7</ele>
        <time>2013-12-15T14:26:08Z</time>
      </trkpt>
      <trkpt lat="44.08469" lon="7.23569">
        <ele>1696.85</ele>
        <time>2013-12-15T14:26:22Z</time>
      </trkpt>
      <trkpt lat="44.0845" lon="7.23565">
        <ele>1699.82</ele>
        <time>2013-12-15T14:26:39Z</time>
      </trkpt>
      <trkpt lat="44.08432" lon="7.23561">
        <ele>1700.2</ele>
        <time>2013-12-15T14:27:02Z</time>
      </trkpt>
      <trkpt lat="44.08418" lon="7.23542">
        <ele>1708.31</ele>
        <time>2013-12-15T14:27:42Z</time>
      </trkpt>
      <trkpt lat="44.08399" lon="7.23544">
        <ele>1705.94</ele>
        <time>2013-12-15T14:28:00Z</time>
      </trkpt>
      <trkpt lat="44.08377" lon="7.23545">
        <ele>1702.2</ele>
        <time>2013-12-15T14:28:15Z</time>
      </trkpt>
      <trkpt lat="44.08359" lon="7.23532">
        <ele>1704.22</ele>
        <time>2013-12-15T14:28:25Z</time>
      </trkpt>
      <trkpt lat="44.08342" lon="7.23519">
        <ele>1708.36</ele>
        <time>2013-12-15T14:28:34Z</time>
      </trkpt>
      <trkpt lat="44.08323" lon="7.23521">
        <ele>1705.66</ele>
        <time>2013-12-15T14:28:50Z</time>
      </trkpt>
      <trkpt lat="44.08306" lon="7.23527">
        <ele>1700.15</ele>
        <time>2013-12-15T14:29:00Z</time>
      </trkpt>
      <trkpt lat="44.08287" lon="7.2352">
        <ele>1702.13</ele>
        <time>2013-12-15T14:29:15Z</time>
      </trkpt>
      <trkpt lat="44.08272" lon="7.23505">
        <ele>1709.82</ele>
        <time>2013-12-15T14:29:33Z</time>
      </trkpt>
      <trkpt lat="44.08253" lon="7.23508">
        <ele>1709.6</ele>
        <time>2013-12-15T14:29:47Z</time>
      </trkpt>
      <trkpt lat="44.08234" lon="7.23518">
        <ele>1707.79</ele>
        <time>2013-12-15T14:29:57Z</time>
      </trkpt>
      <trkpt lat="44.08216" lon="7.23526">
        <ele>1708.21</ele>
        <time>2013-12-15T14:30:16Z</time>
      </trkpt>
      <trkpt lat="44.08198" lon="7.23525">
        <ele>1714.23</ele>
        <time>2013-12-15T14:30:35Z</time>
      </trkpt>
      <trkpt lat="44.08179" lon="7.23531">
        <ele>1718.26</ele>
        <time>2013-12-15T14:31:02Z</time>
      </trkpt>
      <trkpt lat="44.08161" lon="7.23537">
        <ele>1720.76</ele>
        <time>2013-12-15T14:31:19Z</time>
      </trkpt>
      <trkpt lat="44.08144" lon="7.23549">
        <ele>1720.51</ele>
        <time>2013-12-15T14:31:31Z</time>
      </trkpt>
      <trkpt lat="44.08127" lon="7.23561">
        <ele>1716.74</ele>
        <time>2013-12-15T14:31:43Z</time>
      </trkpt>
      <trkpt lat="44.08109" lon="7.23566">
        <ele>1712.75</ele>
        <time>2013-12-15T14:32:01Z</time>
      </trkpt>
      <trkpt lat="44.08091" lon="7.23571">
        <ele>1706.8</ele>
        <time>2013-12-15T14:32:22Z</time>
      </trkpt>
      <trkpt lat="44.08075" lon="7.2356">
        <ele>1704.75</ele>
        <time>2013-12-15T14:32:44Z</time>
      </trkpt>
      <trkpt lat="44.08057" lon="7.23549">
        <ele>1698.35</ele>
        <time>2013-12-15T14:32:59Z</time>
      </trkpt>
      <trkpt lat="44.08042" lon="7.23534">
        <ele>1694.97</ele>
        <time>2013-12-15T14:33:19Z</time>
      </trkpt>
      <trkpt lat="44.08027" lon="7.2352">
        <ele>1691.02</ele>
        <time>2013-12-15T14:33:35Z</time>
      </trkpt>
      <trkpt lat="44.0801" lon="7.23509">
        <ele>1680.34</ele>
        <time>2013-12-15T14:33:56Z</time>
      </trkpt>
      <trkpt lat="44.07996" lon="7.23493">
        <ele>1672.84</ele>
        <time>2013-12-15T14:34:11Z</time>
      </trkpt>
      <trkpt lat="44.07984" lon="7.23474">
        <ele>1667</ele>
        <time>2013-12-15T14:34:30Z</time>
      </trkpt>
      <trkpt lat="44.07973" lon="7.23454">
        <ele>1662.64</ele>
        <time>2013-12-15T14:34:48Z</time>
      </trkpt>
      <trkpt lat="44.07968" lon="7.23428">
        <ele>1667.87</ele>
        <time>2013-12-15T14:34:58Z</time>
      </trkpt>
      <trkpt lat="44.07962" lon="7.23403">
        <ele>1672.61</ele>
        <time>2013-12-15T14:35:08Z</time>
      </trkpt>
      <trkpt lat="44.07954" lon="7.2338">
        <ele>1676.8</ele>
        <time>2013-12-15T14:35:22Z</time>
      </trkpt>
      <trkpt lat="44.07939" lon="7.23365">
        <ele>1677.61</ele>
        <time>2013-12-15T14:35:46Z</time>
      </trkpt>
      <trkpt lat="44.07934" lon="7.23341">
        <ele>1684.04</ele>
        <time>2013-12-15T14:36:03Z</time>
      </trkpt>
      <trkpt lat="44.07929" lon="7.23317">
        <ele>1690.64</ele>
        <time>2013-12-15T14:36:25Z</time>
      </trkpt>
      <trkpt lat="44.07912" lon="7.23307">
        <ele>1688.25</ele>
        <time>2013-12-15T14:36:39Z</time>
      </trkpt>
      <trkpt lat="44.07897" lon="7.23291">
        <ele>1685.61</ele>
        <time>2013-12-15T14:36:57Z</time>
      </trkpt>
      <trkpt lat="44.07881" lon="7.23277">
        <ele>1683.67</ele>
        <time>2013-12-15T14:37:10Z</time>
      </trkpt>
      <trkpt lat="44.07862" lon="7.23271">
        <ele>1679.9</ele>
        <time>2013-12-15T14:37:22Z</time>
      </trkpt>
      <trkpt lat="44.07846" lon="7.23259">
        <ele>1683.13</ele>
        <time>2013-12-15T14:37:38Z</time>
      </trkpt>
      <trkpt lat="44.07828" lon="7.23247">
        <ele>1687.57</ele>
        <time>2013-12-15T14:37:59Z</time>
      </trkpt>
      <trkpt lat="44.0781" lon="7.23241">
        <ele>1692.5</ele>
        <time>2013-12-15T14:38:26Z</time>
      </trkpt>
      <trkpt lat="44.07792" lon="7.23243">
        <ele>1691.62</ele>
        <time>2013-12-15T14:38:45Z</time>
      </trkpt>
      <trkpt lat="44.07774" lon="7.23243">
        <ele>1691.9</ele>
        <time>2013-12-15T14:38:57Z</time>
      </trkpt>
      <trkpt lat="44.07756" lon="7.23247">
        <ele>1689.45</ele>
        <time>2013-12-15T14:39:12Z</time>
      </trkpt>
      <trkpt lat="44.07738" lon="7.23248">
        <ele>1685.24</ele>
        <time>2013-12-15T14:39:34Z</time>
      </trkpt>
      <trkpt lat="44.07717" lon="7.23257">
        <ele>1674.6</ele>
        <time>2013-12-15T14:39:45Z</time>
      </trkpt>
      <trkpt lat="44.077" lon="7.23267">
        <ele>1665.4</ele>
        <time>2013-12-15T14:40:01Z</time>
      </trkpt>
      <trkpt lat="44.07687" lon="7.23285">
        <ele>1655.25</ele>
        <time>2013-12-15T14:40:23Z</time>
      </trkpt>
      <trkpt lat="44.07672" lon="7.233">
        <ele>1646.75</ele>
        <time>2013-12-15T14:40:43Z</time>
      </trkpt>
      <trkpt lat="44.07657" lon="7.23315">
        <ele>1637.73</ele>
        <time>2013-12-15T14:41:04Z</time>
      </trkpt>
      <trkpt lat="44.07639" lon="7.23308">
        <ele>1629.8</ele>
        <time>2013-12-15T14:41:26Z</time>
      </trkpt>
      <trkpt lat="44.07623" lon="7.23295">
        <ele>1622.59</ele>
        <time>2013-12-15T14:41:42Z</time>
      </trkpt>
      <trkpt lat="44.07605" lon="7.23289">
        <ele>1613.72</ele>
        <time>2013-12-15T14:41:55Z</time>
      </trkpt>
      <trkpt lat="44.07594" lon="7.23268">
        <ele>1609.08</ele>
        <time>2013-12-15T14:42:13Z</time>
      </trkpt>
      <trkpt lat="44.07589" lon="7.23243">
        <ele>1607.53</ele>
        <time>2013-12-15T14:42:34Z</time>
      </trkpt>
      <trkpt lat="44.0759" lon="7.23218">
        <ele>1611.17</ele>
        <time>2013-12-15T14:42:52Z</time>
      </trkpt>
      <trkpt lat="44.07588" lon="7.23192">
        <ele>1611.39</ele>
        <time>2013-12-15T14:43:12Z</time>
      </trkpt>
      <trkpt lat="44.07579" lon="7.2317">
        <ele>1608.27</ele>
        <time>2013-12-15T14:43:31Z</time>
      </trkpt>
      <trkpt lat="44.07569" lon="7.23149">
        <ele>1604.97</ele>
        <time>2013-12-15T14:43:46Z</time>
      </trkpt>
      <trkpt lat="44.0756" lon="7.23127">
        <ele>1602.77</ele>
        <time>2013-12-15T14:44:06Z</time>
      </trkpt>
      <trkpt lat="44.07551" lon="7.23104">
        <ele>1601.05</ele>
        <time>2013-12-15T14:44:19Z</time>
      </trkpt>
      <trkpt lat="44.07542" lon="7.23081">
        <ele>1599.3</ele>
        <time>2013-12-15T14:44:36Z</time>
      </trkpt>
      <trkpt lat="44.07529" lon="7.2306">
        <ele>1590.32</ele>
        <time>2013-12-15T14:44:53Z</time>
      </trkpt>
      <trkpt lat="44.07517" lon="7.2304">
        <ele>1581.38</ele>
        <time>2013-12-15T14:45:10Z</time>
      </trkpt>
      <trkpt lat="44.0751" lon="7.23064">
        <ele>1580.93</ele>
        <time>2013-12-15T14:45:59Z</time>
      </trkpt>
      <trkpt lat="44.07491" lon="7.23059">
        <ele>1571.42</ele>
        <time>2013-12-15T14:46:24Z</time>
      </trkpt>
      <trkpt lat="44.07478" lon="7.23041">
        <ele>1562.61</ele>
        <time>2013-12-15T14:46:36Z</time>
      </trkpt>
      <trkpt lat="44.0747" lon="7.23019">
        <ele>1556.14</ele>
        <time>2013-12-15T14:46:56Z</time>
      </trkpt>
      <trkpt lat="44.07466" lon="7.22994">
        <ele>1554.36</ele>
        <time>2013-12-15T14:47:11Z</time>
      </trkpt>
      <trkpt lat="44.07462" lon="7.23018">
        <ele>1552.38</ele>
        <time>2013-12-15T14:47:30Z</time>
      </trkpt>
      <trkpt lat="44.07461" lon="7.23045">
        <ele>1554.85</ele>
        <time>2013-12-15T14:47:41Z</time>
      </trkpt>
      <trkpt lat="44.07469" lon="7.2307">
        <ele>1559.72</ele>
        <time>2013-12-15T14:47:57Z</time>
      </trkpt>
      <trkpt lat="44.07475" lon="7.23094">
        <ele>1560.74</ele>
        <time>2013-12-15T14:48:13Z</time>
      </trkpt>
      <trkpt lat="44.07456" lon="7.23089">
        <ele>1552.58</ele>
        <time>2013-12-15T14:48:29Z</time>
      </trkpt>
      <trkpt lat="44.07446" lon="7.23068">
        <ele>1548.84</ele>
        <time>2013-12-15T14:48:41Z</time>
      </trkpt>
      <trkpt lat="44.07438" lon="7.23046">
        <ele>1542.75</ele>
        <time>2013-12-15T14:48:57Z</time>
      </trkpt>
      <trkpt lat="44.07436" lon="7.23021">
        <ele>1540.31</ele>
        <time>2013-12-15T14:49:13Z</time>
      </trkpt>
      <trkpt lat="44.07437" lon="7.22994">
        <ele>1542.88</ele>
        <time>2013-12-15T14:49:26Z</time>
      </trkpt>
      <trkpt lat="44.07438" lon="7.22968">
        <ele>1547.75</ele>
        <time>2013-12-15T14:49:40Z</time>
      </trkpt>
      <trkpt lat="44.07441" lon="7.22942">
        <ele>1553.59</ele>
        <time>2013-12-15T14:50:00Z</time>
      </trkpt>
      <trkpt lat="44.07425" lon="7.22925">
        <ele>1546.73</ele>
        <time>2013-12-15T14:50:15Z</time>
      </trkpt>
      <trkpt lat="44.07407" lon="7.2292">
        <ele>1537.07</ele>
        <time>2013-12-15T14:50:28Z</time>
      </trkpt>
      <trkpt lat="44.0739" lon="7.22908">
        <ele>1529.99</ele>
        <time>2013-12-15T14:50:42Z</time>
      </trkpt>
      <trkpt lat="44.07376" lon="7.2289">
        <ele>1528.12</ele>
        <time>2013-12-15T14:50:55Z</time>
      </trkpt>
      <trkpt lat="44.07364" lon="7.22871">
        <ele>1526.23</ele>
        <time>2013-12-15T14:51:08Z</time>
      </trkpt>
      <trkpt lat="44.07353" lon="7.22849">
        <ele>1524.07</ele>
        <time>2013-12-15T14:51:26Z</time>
      </trkpt>
      <trkpt lat="44.07347" lon="7.22824">
        <ele>1523.89</ele>
        <time>2013-12-15T14:51:44Z</time>
      </trkpt>
      <trkpt lat="44.0734" lon="7.22801">
        <ele>1522.19</ele>
        <time>2013-12-15T14:51:59Z</time>
      </trkpt>
      <trkpt lat="44.07334" lon="7.22777">
        <ele>1520.27</ele>
        <time>2013-12-15T14:52:14Z</time>
      </trkpt>
      <trkpt lat="44.07329" lon="7.22752">
        <ele>1518.38</ele>
        <time>2013-12-15T14:52:29Z</time>
      </trkpt>
      <trkpt lat="44.07334" lon="7.22726">
        <ele>1518.37</ele>
        <time>2013-12-15T14:52:42Z</time>
      </trkpt>
      <trkpt lat="44.0733" lon="7.22699">
        <ele>1517.93</ele>
        <time>2013-12-15T14:52:53Z</time>
      </trkpt>
      <trkpt lat="44.07329" lon="7.22674">
        <ele>1521.21</ele>
        <time>2013-12-15T14:53:24Z</time>
      </trkpt>
    </trkseg>
  </trk>
</gpx>